Wetterdaten: Samstag, 28.05.2022
Datum Zeit Temp. Aussen Temp. o. S. Temp +5cm Feuchte Auss Luftdruck Regen Sonnenschein Regendauer Solar Windben Empfang
28.05.2022 00:00 11,4 C 10,6 C 7,2 C 75 % 1023,0 hPa 0,0 l/m 0 min 0 min 0 W/m 3,2 km/h (1 Bft) 97,87 %
28.05.2022 00:02 11,4 C 10,6 C 7,2 C 75 % 1023,0 hPa 0,0 l/m 0 min 0 min 0 W/m 3,2 km/h (1 Bft) 97,30 %
28.05.2022 00:04 11,4 C 10,6 C 7,2 C 75 % 1023,0 hPa 0,0 l/m 0 min 0 min 0 W/m 3,2 km/h (1 Bft) 95,74 %
28.05.2022 00:07 11,4 C 10,6 C 7,2 C 75 % 1023,0 hPa 0,0 l/m 0 min 0 min 0 W/m 3,2 km/h (1 Bft) 96,34 %
28.05.2022 00:08 11,4 C 10,6 C 7,2 C 75 % 1023,0 hPa 0,0 l/m 0 min 0 min 0 W/m 3,2 km/h (1 Bft) 100,00 %
28.05.2022 00:10 11,3 C 10,6 C 7,2 C 76 % 1023,0 hPa 0,0 l/m 0 min 0 min 0 W/m 3,2 km/h (1 Bft) 97,87 %
28.05.2022 00:12 11,3 C 10,6 C 7,2 C 76 % 1023,0 hPa 0,0 l/m 0 min 0 min 0 W/m 3,2 km/h (1 Bft) 96,00 %
28.05.2022 00:14 11,3 C 10,6 C 7,2 C 76 % 1023,1 hPa 0,0 l/m 0 min 0 min 0 W/m 3,2 km/h (1 Bft) 52,27 %
28.05.2022 00:16 11,3 C 10,6 C 7,2 C 76 % 1023,0 hPa 0,0 l/m 0 min 0 min 0 W/m 3,2 km/h (1 Bft) 95,74 %
28.05.2022 00:18 11,3 C 10,6 C 7,2 C 76 % 1023,0 hPa 0,0 l/m 0 min 0 min 0 W/m 3,2 km/h (1 Bft) 93,62 %
28.05.2022 00:20 11,3 C 10,0 C 7,2 C 76 % 1023,0 hPa 0,0 l/m 0 min 0 min 0 W/m 3,2 km/h (1 Bft) 95,74 %
28.05.2022 00:22 11,2 C 10,6 C 7,2 C 76 % 1023,0 hPa 0,0 l/m 0 min 0 min 0 W/m 3,2 km/h (1 Bft) 95,74 %
28.05.2022 00:24 11,2 C 10,0 C 7,2 C 76 % 1023,0 hPa 0,0 l/m 0 min 0 min 0 W/m 3,2 km/h (1 Bft) 95,74 %
28.05.2022 00:26 11,2 C 10,0 C 7,2 C 76 % 1023,0 hPa 0,0 l/m 0 min 0 min 0 W/m 6,4 km/h (2 Bft) 95,65 %
28.05.2022 00:28 11,2 C 10,0 C 7,2 C 76 % 1022,9 hPa 0,0 l/m 0 min 0 min 0 W/m 3,2 km/h (1 Bft) 95,74 %
28.05.2022 00:30 11,2 C 10,0 C 7,2 C 77 % 1022,9 hPa 0,0 l/m 0 min 0 min 0 W/m 3,2 km/h (1 Bft) 95,74 %
28.05.2022 00:32 11,2 C 10,0 C 7,2 C 77 % 1022,9 hPa 0,0 l/m 0 min 0 min 0 W/m 3,2 km/h (1 Bft) 95,74 %
28.05.2022 00:34 11,1 C 10,0 C 7,2 C 77 % 1022,8 hPa 0,0 l/m 0 min 0 min 0 W/m 3,2 km/h (1 Bft) 95,74 %
28.05.2022 00:36 11,1 C 10,0 C 7,2 C 77 % 1022,8 hPa 0,0 l/m 0 min 0 min 0 W/m 3,2 km/h (1 Bft) 93,62 %
28.05.2022 00:38 11,1 C 10,0 C 7,2 C 77 % 1022,8 hPa 0,0 l/m 0 min 0 min 0 W/m 6,4 km/h (2 Bft) 95,65 %
28.05.2022 00:40 11,1 C 10,0 C 7,2 C 77 % 1022,7 hPa 0,0 l/m 0 min 0 min 0 W/m 6,4 km/h (2 Bft) 95,74 %
28.05.2022 00:42 11,0 C 10,0 C 7,2 C 77 % 1022,7 hPa 0,0 l/m 0 min 0 min 0 W/m 3,2 km/h (1 Bft) 93,62 %
28.05.2022 00:44 11,0 C 10,0 C 7,2 C 77 % 1022,7 hPa 0,0 l/m 0 min 0 min 0 W/m 3,2 km/h (1 Bft) 95,74 %
28.05.2022 00:46 10,9 C 10,0 C 7,2 C 77 % 1022,7 hPa 0,0 l/m 0 min 0 min 0 W/m 6,4 km/h (2 Bft) 93,62 %
28.05.2022 00:48 10,9 C 10,0 C 7,2 C 77 % 1022,7 hPa 0,0 l/m 0 min 0 min 0 W/m 3,2 km/h (1 Bft) 95,74 %
28.05.2022 00:50 10,9 C 10,0 C 7,2 C 77 % 1022,7 hPa 0,0 l/m 0 min 0 min 0 W/m 3,2 km/h (1 Bft) 95,65 %
28.05.2022 00:52 10,9 C 10,0 C 7,2 C 77 % 1022,7 hPa 0,0 l/m 0 min 0 min 0 W/m 3,2 km/h (1 Bft) 93,62 %
28.05.2022 00:54 10,9 C 10,0 C 7,2 C 78 % 1022,7 hPa 0,0 l/m 0 min 0 min 0 W/m 6,4 km/h (2 Bft) 95,74 %
28.05.2022 00:56 10,9 C 10,0 C 7,2 C 77 % 1022,7 hPa 0,0 l/m 0 min 0 min 0 W/m 3,2 km/h (1 Bft) 97,87 %
28.05.2022 00:58 10,9 C 10,0 C 7,2 C 77 % 1022,7 hPa 0,0 l/m 0 min 0 min 0 W/m 6,4 km/h (2 Bft) 97,87 %
28.05.2022 01:00 10,8 C 10,0 C 7,2 C 77 % 1022,6 hPa 0,0 l/m 0 min 0 min 0 W/m 3,2 km/h (1 Bft) 95,74 %
28.05.2022 01:02 10,8 C 10,0 C 7,2 C 77 % 1022,6 hPa 0,0 l/m 0 min 0 min 0 W/m 3,2 km/h (1 Bft) 95,65 %
28.05.2022 01:04 10,8 C 10,0 C 7,2 C 78 % 1022,5 hPa 0,0 l/m 0 min 0 min 0 W/m 3,2 km/h (1 Bft) 95,74 %
28.05.2022 01:06 10,8 C 10,0 C 7,2 C 77 % 1022,5 hPa 0,0 l/m 0 min 0 min 0 W/m 3,2 km/h (1 Bft) 95,74 %
28.05.2022 01:08 10,8 C 10,0 C 7,2 C 78 % 1022,5 hPa 0,0 l/m 0 min 0 min 0 W/m 3,2 km/h (1 Bft) 97,87 %
28.05.2022 01:10 10,8 C 10,0 C 7,2 C 78 % 1022,5 hPa 0,0 l/m 0 min 0 min 0 W/m 3,2 km/h (1 Bft) 95,74 %
28.05.2022 01:12 10,7 C 10,0 C 7,2 C 78 % 1022,4 hPa 0,0 l/m 0 min 0 min 0 W/m 3,2 km/h (1 Bft) 95,74 %
28.05.2022 01:14 10,7 C 10,0 C 7,2 C 78 % 1022,4 hPa 0,0 l/m 0 min 0 min 0 W/m 3,2 km/h (1 Bft) 97,83 %
28.05.2022 01:16 10,7 C 10,0 C 7,2 C 78 % 1022,3 hPa 0,0 l/m 0 min 0 min 0 W/m 3,2 km/h (1 Bft) 93,62 %
28.05.2022 01:18 10,7 C 10,0 C 6,7 C 78 % 1022,3 hPa 0,0 l/m 0 min 0 min 0 W/m 3,2 km/h (1 Bft) 97,87 %
28.05.2022 01:20 10,7 C 10,0 C 6,7 C 78 % 1022,4 hPa 0,0 l/m 0 min 0 min 0 W/m 3,2 km/h (1 Bft) 97,87 %
28.05.2022 01:22 10,7 C 9,4 C 6,7 C 78 % 1022,5 hPa 0,0 l/m 0 min 0 min 0 W/m 3,2 km/h (1 Bft) 95,74 %
28.05.2022 01:24 10,6 C 9,4 C 6,7 C 78 % 1022,5 hPa 0,0 l/m 0 min 0 min 0 W/m 3,2 km/h (1 Bft) 97,87 %
28.05.2022 01:26 10,6 C 9,4 C 6,7 C 78 % 1022,4 hPa 0,0 l/m 0 min 0 min 0 W/m 3,2 km/h (1 Bft) 95,65 %
28.05.2022 01:28 10,6 C 9,4 C 6,7 C 78 % 1022,4 hPa 0,0 l/m 0 min 0 min 0 W/m 3,2 km/h (1 Bft) 95,74 %
28.05.2022 01:30 10,6 C 9,4 C 6,7 C 78 % 1022,3 hPa 0,0 l/m 0 min 0 min 0 W/m 6,4 km/h (2 Bft) 97,87 %
28.05.2022 01:32 10,6 C 9,4 C 6,7 C 79 % 1022,3 hPa 0,0 l/m 0 min 0 min 0 W/m 6,4 km/h (2 Bft) 100,00 %
28.05.2022 01:34 10,5 C 9,4 C 6,7 C 79 % 1022,3 hPa 0,0 l/m 0 min 0 min 0 W/m 3,2 km/h (1 Bft) 100,00 %
28.05.2022 01:36 10,5 C 9,4 C 6,7 C 79 % 1022,3 hPa 0,0 l/m 0 min 0 min 0 W/m 3,2 km/h (1 Bft) 100,00 %
28.05.2022 01:38 10,5 C 9,4 C 6,7 C 79 % 1022,3 hPa 0,0 l/m 0 min 0 min 0 W/m 3,2 km/h (1 Bft) 100,00 %
28.05.2022 01:40 10,5 C 9,4 C 6,7 C 79 % 1022,3 hPa 0,0 l/m 0 min 0 min 0 W/m 6,4 km/h (2 Bft) 100,00 %
28.05.2022 01:42 10,4 C 9,4 C 6,7 C 79 % 1022,3 hPa 0,0 l/m 0 min 0 min 0 W/m 6,4 km/h (2 Bft) 100,00 %
28.05.2022 01:44 10,4 C 9,4 C 6,7 C 79 % 1022,3 hPa 0,0 l/m 0 min 0 min 0 W/m 6,4 km/h (2 Bft) 100,00 %
28.05.2022 01:46 10,4 C 9,4 C 6,7 C 79 % 1022,2 hPa 0,0 l/m 0 min 0 min 0 W/m 3,2 km/h (1 Bft) 100,00 %
28.05.2022 01:48 10,4 C 9,4 C 6,7 C 79 % 1022,2 hPa 0,0 l/m 0 min 0 min 0 W/m 3,2 km/h (1 Bft) 97,83 %
28.05.2022 01:50 10,4 C 9,4 C 6,7 C 79 % 1022,2 hPa 0,0 l/m 0 min 0 min 0 W/m 3,2 km/h (1 Bft) 97,87 %
28.05.2022 01:52 10,4 C 9,4 C 6,7 C 79 % 1022,1 hPa 0,0 l/m 0 min 0 min 0 W/m 6,4 km/h (2 Bft) 100,00 %
28.05.2022 01:54 10,4 C 9,4 C 6,7 C 79 % 1022,1 hPa 0,0 l/m 0 min 0 min 0 W/m 6,4 km/h (2 Bft) 100,00 %
28.05.2022 01:56 10,4 C 9,4 C 6,7 C 79 % 1022,1 hPa 0,0 l/m 0 min 0 min 0 W/m 6,4 km/h (2 Bft) 53,49 %
28.05.2022 01:58 10,4 C 9,4 C 6,7 C 79 % 1022,0 hPa 0,0 l/m 0 min 0 min 0 W/m 6,4 km/h (2 Bft) 97,87 %
28.05.2022 02:00 10,4 C 9,4 C 6,7 C 79 % 1022,0 hPa 0,0 l/m 0 min 0 min 0 W/m 6,4 km/h (2 Bft) 100,00 %
28.05.2022 02:02 10,4 C 10,0 C 7,2 C 79 % 1021,9 hPa 0,0 l/m 0 min 0 min 0 W/m 3,2 km/h (1 Bft) 100,00 %
28.05.2022 02:04 10,4 C 10,0 C 7,2 C 79 % 1021,8 hPa 0,0 l/m 0 min 0 min 0 W/m 12,9 km/h (3 Bft) 100,00 %
28.05.2022 02:06 10,4 C 10,0 C 7,2 C 79 % 1021,8 hPa 0,0 l/m 0 min 0 min 0 W/m 3,2 km/h (1 Bft) 97,87 %
28.05.2022 02:08 10,4 C 10,0 C 7,2 C 79 % 1021,8 hPa 0,0 l/m 0 min 0 min 0 W/m 3,2 km/h (1 Bft) 100,00 %
28.05.2022 02:10 10,5 C 10,0 C 6,7 C 79 % 1021,8 hPa 0,0 l/m 0 min 0 min 0 W/m 0,0 km/h (0 Bft) 100,00 %
28.05.2022 02:12 10,5 C 10,0 C 6,7 C 79 % 1021,8 hPa 0,0 l/m 0 min 0 min 0 W/m 0,0 km/h (0 Bft) 100,00 %
28.05.2022 02:14 10,5 C 10,0 C 6,7 C 79 % 1021,8 hPa 0,0 l/m 0 min 0 min 0 W/m 0,0 km/h (0 Bft) 100,00 %
28.05.2022 02:16 10,5 C 10,0 C 6,7 C 79 % 1021,8 hPa 0,0 l/m 0 min 0 min 0 W/m 0,0 km/h (0 Bft) 100,00 %
28.05.2022 02:18 10,5 C 10,0 C 6,7 C 79 % 1021,9 hPa 0,0 l/m 0 min 0 min 0 W/m 0,0 km/h (0 Bft) 100,00 %
28.05.2022 02:20 10,5 C 10,0 C 6,7 C 79 % 1021,8 hPa 0,0 l/m 0 min 0 min 0 W/m 0,0 km/h (0 Bft) 97,87 %
28.05.2022 02:22 10,5 C 10,0 C 6,7 C 79 % 1021,9 hPa 0,0 l/m 0 min 0 min 0 W/m 12,9 km/h (3 Bft) 97,87 %
28.05.2022 02:24 10,6 C 10,0 C 6,7 C 79 % 1021,8 hPa 0,0 l/m 0 min 0 min 0 W/m 9,7 km/h (2 Bft) 100,00 %
28.05.2022 02:26 10,6 C 10,0 C 6,7 C 79 % 1021,8 hPa 0,0 l/m 0 min 0 min 0 W/m 6,4 km/h (2 Bft) 100,00 %
28.05.2022 02:28 10,6 C 10,0 C 6,7 C 79 % 1021,8 hPa 0,0 l/m 0 min 0 min 0 W/m 6,4 km/h (2 Bft) 100,00 %
28.05.2022 02:30 10,6 C 10,0 C 7,2 C 79 % 1021,8 hPa 0,0 l/m 0 min 0 min 0 W/m 6,4 km/h (2 Bft) 97,87 %
28.05.2022 02:32 10,6 C 10,0 C 7,2 C 79 % 1021,8 hPa 0,0 l/m 0 min 0 min 0 W/m 6,4 km/h (2 Bft) 97,87 %
28.05.2022 02:34 10,6 C 10,0 C 7,2 C 79 % 1021,8 hPa 0,0 l/m 0 min 0 min 0 W/m 9,7 km/h (2 Bft) 100,00 %
28.05.2022 02:36 10,6 C 10,0 C 7,2 C 79 % 1021,8 hPa 0,0 l/m 0 min 0 min 0 W/m 6,4 km/h (2 Bft) 95,65 %
28.05.2022 02:38 10,6 C 10,0 C 7,2 C 79 % 1021,7 hPa 0,0 l/m 0 min 0 min 0 W/m 6,4 km/h (2 Bft) 93,62 %
28.05.2022 02:40 10,6 C 10,0 C 6,7 C 79 % 1021,7 hPa 0,0 l/m 0 min 0 min 0 W/m 3,2 km/h (1 Bft) 95,74 %
28.05.2022 02:42 10,6 C 10,0 C 7,2 C 79 % 1021,7 hPa 0,0 l/m 0 min 0 min 0 W/m 9,7 km/h (2 Bft) 93,62 %
28.05.2022 02:44 10,7 C 10,0 C 7,2 C 79 % 1021,8 hPa 0,0 l/m 0 min 0 min 0 W/m 6,4 km/h (2 Bft) 95,74 %
28.05.2022 02:46 10,7 C 10,0 C 7,2 C 79 % 1021,7 hPa 0,0 l/m 0 min 0 min 0 W/m 6,4 km/h (2 Bft) 95,74 %
28.05.2022 02:48 10,7 C 10,0 C 7,2 C 79 % 1021,7 hPa 0,0 l/m 0 min 0 min 0 W/m 3,2 km/h (1 Bft) 95,65 %
28.05.2022 02:50 10,7 C 10,0 C 7,2 C 79 % 1021,7 hPa 0,0 l/m 0 min 0 min 0 W/m 6,4 km/h (2 Bft) 95,74 %
28.05.2022 02:52 10,7 C 10,0 C 7,2 C 79 % 1021,7 hPa 0,0 l/m 0 min 0 min 0 W/m 6,4 km/h (2 Bft) 95,74 %
28.05.2022 02:54 10,7 C 10,0 C 7,2 C 79 % 1021,7 hPa 0,0 l/m 0 min 0 min 0 W/m 6,4 km/h (2 Bft) 95,74 %
28.05.2022 02:56 10,7 C 10,0 C 7,2 C 79 % 1021,6 hPa 0,0 l/m 0 min 0 min 0 W/m 6,4 km/h (2 Bft) 95,74 %
28.05.2022 02:58 10,8 C 10,0 C 7,2 C 79 % 1021,6 hPa 0,0 l/m 0 min 0 min 0 W/m 6,4 km/h (2 Bft) 89,36 %
28.05.2022 03:00 10,8 C 10,0 C 7,2 C 79 % 1021,5 hPa 0,0 l/m 0 min 0 min 0 W/m 3,2 km/h (1 Bft) 95,65 %
28.05.2022 03:02 10,8 C 10,0 C 7,2 C 79 % 1021,6 hPa 0,0 l/m 0 min 0 min 0 W/m 9,7 km/h (2 Bft) 95,74 %
28.05.2022 03:04 10,8 C 10,0 C 7,2 C 79 % 1021,6 hPa 0,0 l/m 0 min 0 min 0 W/m 6,4 km/h (2 Bft) 95,74 %
28.05.2022 03:06 10,8 C 10,0 C 7,2 C 79 % 1021,5 hPa 0,0 l/m 0 min 0 min 0 W/m 12,9 km/h (3 Bft) 95,74 %
28.05.2022 03:08 10,8 C 10,0 C 7,2 C 79 % 1021,5 hPa 0,0 l/m 0 min 0 min 0 W/m 9,7 km/h (2 Bft) 97,87 %
28.05.2022 03:10 10,8 C 10,0 C 7,2 C 79 % 1021,5 hPa 0,0 l/m 0 min 0 min 0 W/m 6,4 km/h (2 Bft) 97,87 %
28.05.2022 03:12 10,8 C 10,0 C 7,2 C 79 % 1021,5 hPa 0,0 l/m 0 min 0 min 0 W/m 6,4 km/h (2 Bft) 97,83 %
28.05.2022 03:14 10,8 C 10,0 C 7,2 C 79 % 1021,5 hPa 0,0 l/m 0 min 0 min 0 W/m 6,4 km/h (2 Bft) 97,87 %
28.05.2022 03:16 10,8 C 10,0 C 7,2 C 79 % 1021,5 hPa 0,0 l/m 0 min 0 min 0 W/m 9,7 km/h (2 Bft) 97,87 %
28.05.2022 03:18 10,9 C 10,0 C 7,2 C 79 % 1021,5 hPa 0,0 l/m 0 min 0 min 0 W/m 9,7 km/h (2 Bft) 97,87 %
28.05.2022 03:20 10,9 C 10,6 C 7,2 C 79 % 1021,5 hPa 0,0 l/m 0 min 0 min 0 W/m 12,9 km/h (3 Bft) 100,00 %
28.05.2022 03:22 10,9 C 10,6 C 7,2 C 79 % 1021,5 hPa 0,0 l/m 0 min 0 min 0 W/m 6,4 km/h (2 Bft) 100,00 %
28.05.2022 03:24 10,9 C 10,0 C 7,2 C 79 % 1021,4 hPa 0,0 l/m 0 min 0 min 0 W/m 6,4 km/h (2 Bft) 100,00 %
28.05.2022 03:26 10,9 C 10,0 C 7,2 C 79 % 1021,4 hPa 0,0 l/m 0 min 0 min 0 W/m 9,7 km/h (2 Bft) 100,00 %
28.05.2022 03:28 10,9 C 10,0 C 7,2 C 79 % 1021,5 hPa 0,0 l/m 0 min 0 min 0 W/m 6,4 km/h (2 Bft) 100,00 %
28.05.2022 03:30 10,9 C 10,0 C 7,2 C 79 % 1021,5 hPa 0,0 l/m 0 min 0 min 0 W/m 6,4 km/h (2 Bft) 100,00 %
28.05.2022 03:32 10,9 C 10,0 C 7,2 C 79 % 1021,5 hPa 0,0 l/m 0 min 0 min 0 W/m 6,4 km/h (2 Bft) 100,00 %
28.05.2022 03:34 10,9 C 10,0 C 7,2 C 79 % 1021,4 hPa 0,0 l/m 0 min 0 min 0 W/m 19,3 km/h (3 Bft) 95,74 %
28.05.2022 03:36 10,9 C 10,0 C 7,2 C 79 % 1021,4 hPa 0,0 l/m 0 min 0 min 0 W/m 9,7 km/h (2 Bft) 100,00 %
28.05.2022 03:38 10,9 C 10,0 C 7,2 C 79 % 1021,4 hPa 0,0 l/m 0 min 0 min 0 W/m 6,4 km/h (2 Bft) 97,87 %
28.05.2022 03:40 10,9 C 10,6 C 7,2 C 79 % 1021,4 hPa 0,0 l/m 0 min 0 min 0 W/m 9,7 km/h (2 Bft) 97,87 %
28.05.2022 03:42 10,9 C 10,6 C 7,2 C 79 % 1021,3 hPa 0,0 l/m 0 min 0 min 0 W/m 6,4 km/h (2 Bft) 97,87 %
28.05.2022 03:44 10,9 C 10,6 C 7,2 C 79 % 1021,3 hPa 0,0 l/m 0 min 0 min 0 W/m 6,4 km/h (2 Bft) 97,87 %
28.05.2022 03:46 10,9 C 10,6 C 7,2 C 79 % 1021,2 hPa 0,0 l/m 0 min 0 min 0 W/m 6,4 km/h (2 Bft) 95,74 %
28.05.2022 03:48 10,9 C 10,6 C 7,2 C 79 % 1021,3 hPa 0,0 l/m 0 min 0 min 0 W/m 12,9 km/h (3 Bft) 97,83 %
28.05.2022 03:50 10,9 C 10,0 C 7,2 C 79 % 1021,3 hPa 0,0 l/m 0 min 0 min 0 W/m 12,9 km/h (3 Bft) 97,87 %
28.05.2022 03:52 10,9 C 10,0 C 7,2 C 79 % 1021,3 hPa 0,0 l/m 0 min 0 min 0 W/m 6,4 km/h (2 Bft) 95,74 %
28.05.2022 03:54 10,9 C 10,0 C 7,2 C 79 % 1021,3 hPa 0,0 l/m 0 min 0 min 0 W/m 12,9 km/h (3 Bft) 97,87 %
28.05.2022 03:56 10,9 C 10,0 C 7,2 C 79 % 1021,3 hPa 0,0 l/m 0 min 0 min 0 W/m 6,4 km/h (2 Bft) 95,74 %
28.05.2022 03:58 10,9 C 10,6 C 7,2 C 79 % 1021,3 hPa 0,0 l/m 0 min 0 min 0 W/m 6,4 km/h (2 Bft) 97,87 %
28.05.2022 04:00 10,9 C 10,6 C 7,2 C 79 % 1021,3 hPa 0,0 l/m 0 min 0 min 0 W/m 3,2 km/h (1 Bft) 95,65 %
28.05.2022 04:05 10,9 C 10,6 C 7,2 C 79 % 1021,4 hPa 0,0 l/m 0 min 0 min 0 W/m 12,9 km/h (3 Bft) 94,92 %
28.05.2022 04:06 11,0 C 10,6 C 7,2 C 79 % 1021,3 hPa 0,0 l/m 0 min 0 min 0 W/m 6,4 km/h (2 Bft) 95,83 %
28.05.2022 04:08 10,9 C 10,0 C 7,2 C 79 % 1021,3 hPa 0,0 l/m 0 min 0 min 0 W/m 6,4 km/h (2 Bft) 97,87 %
28.05.2022 04:10 10,9 C 10,0 C 7,2 C 79 % 1021,3 hPa 0,0 l/m 0 min 0 min 0 W/m 9,7 km/h (2 Bft) 97,87 %
28.05.2022 04:12 10,9 C 10,0 C 7,2 C 79 % 1021,3 hPa 0,0 l/m 0 min 0 min 0 W/m 6,4 km/h (2 Bft) 97,83 %
28.05.2022 04:14 10,9 C 10,0 C 7,2 C 79 % 1021,3 hPa 0,0 l/m 0 min 0 min 0 W/m 6,4 km/h (2 Bft) 97,87 %
28.05.2022 04:16 10,9 C 10,0 C 7,2 C 79 % 1021,3 hPa 0,0 l/m 0 min 0 min 0 W/m 6,4 km/h (2 Bft) 97,87 %
28.05.2022 04:18 10,9 C 10,0 C 7,2 C 79 % 1021,3 hPa 0,0 l/m 0 min 0 min 0 W/m 9,7 km/h (2 Bft) 97,87 %
28.05.2022 04:20 10,8 C 10,0 C 6,7 C 79 % 1021,3 hPa 0,0 l/m 0 min 0 min 0 W/m 3,2 km/h (1 Bft) 97,87 %
28.05.2022 04:22 10,8 C 10,0 C 6,7 C 79 % 1021,3 hPa 0,0 l/m 0 min 0 min 0 W/m 6,4 km/h (2 Bft) 95,65 %
28.05.2022 04:24 10,8 C 10,0 C 6,7 C 79 % 1021,3 hPa 0,0 l/m 0 min 0 min 0 W/m 6,4 km/h (2 Bft) 93,62 %
28.05.2022 04:26 10,7 C 10,0 C 6,7 C 80 % 1021,3 hPa 0,0 l/m 0 min 0 min 0 W/m 9,7 km/h (2 Bft) 95,74 %
28.05.2022 04:28 10,7 C 10,0 C 6,7 C 80 % 1021,3 hPa 0,0 l/m 0 min 0 min 0 W/m 6,4 km/h (2 Bft) 95,74 %
28.05.2022 04:30 10,7 C 10,0 C 6,7 C 80 % 1021,3 hPa 0,0 l/m 0 min 0 min 0 W/m 6,4 km/h (2 Bft) 95,74 %
28.05.2022 04:32 10,6 C 9,4 C 6,7 C 80 % 1021,3 hPa 0,0 l/m 0 min 0 min 0 W/m 9,7 km/h (2 Bft) 95,74 %
28.05.2022 04:34 10,6 C 9,4 C 6,7 C 80 % 1021,3 hPa 0,0 l/m 0 min 0 min 0 W/m 6,4 km/h (2 Bft) 95,74 %
28.05.2022 04:36 10,6 C 9,4 C 6,7 C 80 % 1021,3 hPa 0,0 l/m 0 min 0 min 0 W/m 9,7 km/h (2 Bft) 95,65 %
28.05.2022 04:38 10,6 C 9,4 C 6,7 C 80 % 1021,2 hPa 0,0 l/m 0 min 0 min 0 W/m 9,7 km/h (2 Bft) 97,87 %
28.05.2022 04:40 10,6 C 9,4 C 6,7 C 80 % 1021,2 hPa 0,0 l/m 0 min 0 min 0 W/m 6,4 km/h (2 Bft) 95,74 %
28.05.2022 04:42 10,5 C 9,4 C 6,7 C 80 % 1021,2 hPa 0,0 l/m 0 min 0 min 0 W/m 6,4 km/h (2 Bft) 97,87 %
28.05.2022 04:44 10,5 C 9,4 C 6,7 C 80 % 1021,3 hPa 0,0 l/m 0 min 0 min 0 W/m 3,2 km/h (1 Bft) 97,87 %
28.05.2022 04:46 10,4 C 9,4 C 6,7 C 81 % 1021,2 hPa 0,0 l/m 0 min 0 min 0 W/m 6,4 km/h (2 Bft) 97,83 %
28.05.2022 04:48 10,4 C 9,4 C 6,7 C 81 % 1021,2 hPa 0,0 l/m 0 min 0 min 0 W/m 3,2 km/h (1 Bft) 97,83 %
28.05.2022 04:50 10,4 C 9,4 C 6,7 C 81 % 1021,3 hPa 0,0 l/m 0 min 0 min 0 W/m 3,2 km/h (1 Bft) 97,87 %
28.05.2022 04:52 10,4 C 9,4 C 6,1 C 81 % 1021,2 hPa 0,0 l/m 0 min 0 min 0 W/m 3,2 km/h (1 Bft) 100,00 %
28.05.2022 04:54 10,3 C 9,4 C 6,1 C 81 % 1021,3 hPa 0,0 l/m 0 min 0 min 0 W/m 3,2 km/h (1 Bft) 100,00 %
28.05.2022 04:56 10,3 C 9,4 C 6,1 C 82 % 1021,2 hPa 0,0 l/m 0 min 0 min 0 W/m 3,2 km/h (1 Bft) 97,87 %
28.05.2022 04:58 10,3 C 9,4 C 6,7 C 82 % 1021,2 hPa 0,0 l/m 0 min 0 min 0 W/m 3,2 km/h (1 Bft) 97,83 %
28.05.2022 05:00 10,3 C 9,4 C 6,7 C 82 % 1021,2 hPa 0,0 l/m 0 min 0 min 0 W/m 3,2 km/h (1 Bft) 97,87 %
28.05.2022 05:02 10,2 C 9,4 C 6,1 C 82 % 1021,1 hPa 0,0 l/m 0 min 0 min 0 W/m 3,2 km/h (1 Bft) 100,00 %
28.05.2022 05:04 10,2 C 9,4 C 6,1 C 82 % 1021,1 hPa 0,0 l/m 0 min 0 min 0 W/m 3,2 km/h (1 Bft) 100,00 %
28.05.2022 05:06 10,2 C 8,9 C 6,1 C 82 % 1021,1 hPa 0,0 l/m 0 min 0 min 0 W/m 3,2 km/h (1 Bft) 97,87 %
28.05.2022 05:08 10,1 C 8,9 C 6,1 C 82 % 1021,1 hPa 0,0 l/m 0 min 0 min 0 W/m 3,2 km/h (1 Bft) 97,87 %
28.05.2022 05:10 10,1 C 8,9 C 6,1 C 82 % 1021,2 hPa 0,0 l/m 0 min 0 min 0 W/m 3,2 km/h (1 Bft) 97,83 %
28.05.2022 05:12 10,1 C 8,9 C 6,1 C 82 % 1021,1 hPa 0,0 l/m 0 min 0 min 0 W/m 3,2 km/h (1 Bft) 95,74 %
28.05.2022 05:14 10,1 C 8,9 C 6,1 C 82 % 1021,1 hPa 0,0 l/m 0 min 0 min 0 W/m 3,2 km/h (1 Bft) 97,87 %
28.05.2022 05:16 10,1 C 8,9 C 6,1 C 82 % 1021,1 hPa 0,0 l/m 0 min 0 min 0 W/m 9,7 km/h (2 Bft) 97,87 %
28.05.2022 05:18 10,0 C 8,9 C 6,1 C 83 % 1021,1 hPa 0,0 l/m 0 min 0 min 0 W/m 3,2 km/h (1 Bft) 97,87 %
28.05.2022 05:20 9,9 C 8,9 C 6,1 C 83 % 1021,1 hPa 0,0 l/m 0 min 0 min 0 W/m 6,4 km/h (2 Bft) 97,87 %
28.05.2022 05:22 9,9 C 8,9 C 6,1 C 83 % 1021,1 hPa 0,0 l/m 0 min 0 min 0 W/m 6,4 km/h (2 Bft) 95,65 %
28.05.2022 05:24 9,9 C 8,9 C 6,1 C 83 % 1021,1 hPa 0,0 l/m 0 min 0 min 0 W/m 3,2 km/h (1 Bft) 97,87 %
28.05.2022 05:26 9,9 C 8,9 C 6,1 C 84 % 1021,1 hPa 0,0 l/m 0 min 0 min 0 W/m 6,4 km/h (2 Bft) 97,87 %
28.05.2022 05:28 9,9 C 8,9 C 6,1 C 84 % 1021,1 hPa 0,0 l/m 0 min 0 min 0 W/m 6,4 km/h (2 Bft) 97,87 %
28.05.2022 05:30 9,9 C 8,9 C 6,1 C 83 % 1021,1 hPa 0,0 l/m 0 min 0 min 0 W/m 9,7 km/h (2 Bft) 97,87 %
28.05.2022 05:32 9,9 C 8,9 C 6,1 C 84 % 1021,1 hPa 0,0 l/m 0 min 0 min 1 W/m 6,4 km/h (2 Bft) 97,87 %
28.05.2022 05:34 9,8 C 8,9 C 6,1 C 84 % 1021,2 hPa 0,0 l/m 0 min 0 min 5 W/m 6,4 km/h (2 Bft) 97,83 %
28.05.2022 05:36 9,8 C 8,9 C 6,1 C 84 % 1021,1 hPa 0,0 l/m 0 min 0 min 5 W/m 3,2 km/h (1 Bft) 97,87 %
28.05.2022 05:38 9,8 C 8,9 C 6,1 C 84 % 1021,1 hPa 0,0 l/m 0 min 0 min 5 W/m 3,2 km/h (1 Bft) 97,87 %
28.05.2022 05:40 9,8 C 8,9 C 6,1 C 84 % 1021,1 hPa 0,0 l/m 0 min 0 min 6 W/m 3,2 km/h (1 Bft) 95,74 %
28.05.2022 05:42 9,8 C 8,9 C 6,1 C 84 % 1021,1 hPa 0,0 l/m 0 min 0 min 7 W/m 3,2 km/h (1 Bft) 95,74 %
28.05.2022 05:44 9,8 C 8,9 C 6,1 C 84 % 1021,2 hPa 0,0 l/m 0 min 0 min 7 W/m 3,2 km/h (1 Bft) 97,87 %
28.05.2022 05:46 9,8 C 8,9 C 6,1 C 84 % 1021,2 hPa 0,0 l/m 0 min 0 min 8 W/m 3,2 km/h (1 Bft) 97,83 %
28.05.2022 05:48 9,8 C 8,9 C 6,1 C 84 % 1021,2 hPa 0,0 l/m 0 min 0 min 9 W/m 3,2 km/h (1 Bft) 97,87 %
28.05.2022 05:50 9,8 C 8,9 C 6,1 C 84 % 1021,2 hPa 0,0 l/m 0 min 0 min 9 W/m 3,2 km/h (1 Bft) 97,87 %
28.05.2022 05:52 9,8 C 8,9 C 6,1 C 85 % 1021,2 hPa 0,0 l/m 0 min 0 min 10 W/m 6,4 km/h (2 Bft) 97,87 %
28.05.2022 05:54 9,8 C 8,9 C 6,1 C 85 % 1021,2 hPa 0,0 l/m 0 min 0 min 12 W/m 3,2 km/h (1 Bft) 100,00 %
28.05.2022 05:56 9,7 C 8,9 C 6,1 C 85 % 1021,2 hPa 0,0 l/m 0 min 0 min 16 W/m 6,4 km/h (2 Bft) 100,00 %
28.05.2022 05:58 9,7 C 8,9 C 6,1 C 85 % 1021,2 hPa 0,0 l/m 0 min 0 min 19 W/m 9,7 km/h (2 Bft) 100,00 %
28.05.2022 06:00 9,8 C 8,9 C 6,1 C 85 % 1021,2 hPa 0,0 l/m 0 min 0 min 19 W/m 6,4 km/h (2 Bft) 100,00 %
28.05.2022 06:02 9,8 C 8,9 C 6,1 C 85 % 1021,2 hPa 0,0 l/m 0 min 0 min 17 W/m 3,2 km/h (1 Bft) 95,74 %
28.05.2022 06:04 9,8 C 8,9 C 6,1 C 85 % 1021,3 hPa 0,0 l/m 0 min 0 min 15 W/m 6,4 km/h (2 Bft) 95,74 %
28.05.2022 06:08 9,8 C 8,9 C 6,1 C 85 % 1021,2 hPa 0,0 l/m 0 min 0 min 14 W/m 3,2 km/h (1 Bft) 96,84 %
28.05.2022 06:10 9,8 C 8,9 C 6,1 C 85 % 1021,2 hPa 0,0 l/m 0 min 0 min 16 W/m 6,4 km/h (2 Bft) 97,83 %
28.05.2022 06:12 9,8 C 8,9 C 6,1 C 85 % 1021,3 hPa 0,0 l/m 0 min 0 min 16 W/m 6,4 km/h (2 Bft) 97,87 %
28.05.2022 06:14 9,8 C 8,9 C 6,1 C 85 % 1021,3 hPa 0,0 l/m 0 min 0 min 18 W/m 9,7 km/h (2 Bft) 97,87 %
28.05.2022 06:16 9,8 C 8,9 C 6,1 C 85 % 1021,2 hPa 0,0 l/m 0 min 0 min 18 W/m 6,4 km/h (2 Bft) 95,74 %
28.05.2022 06:18 9,8 C 9,4 C 6,1 C 86 % 1021,3 hPa 0,0 l/m 0 min 0 min 18 W/m 3,2 km/h (1 Bft) 97,87 %
28.05.2022 06:20 9,8 C 9,4 C 6,1 C 86 % 1021,3 hPa 0,0 l/m 0 min 0 min 18 W/m 9,7 km/h (2 Bft) 95,74 %
28.05.2022 06:22 9,8 C 9,4 C 6,1 C 86 % 1021,3 hPa 0,0 l/m 0 min 0 min 19 W/m 6,4 km/h (2 Bft) 95,65 %
28.05.2022 06:24 9,8 C 9,4 C 6,1 C 86 % 1021,3 hPa 0,0 l/m 0 min 0 min 19 W/m 6,4 km/h (2 Bft) 97,87 %
28.05.2022 06:26 9,9 C 9,4 C 6,1 C 86 % 1021,3 hPa 0,0 l/m 0 min 0 min 21 W/m 3,2 km/h (1 Bft) 97,87 %
28.05.2022 06:28 9,9 C 9,4 C 6,1 C 86 % 1021,3 hPa 0,0 l/m 0 min 0 min 21 W/m 6,4 km/h (2 Bft) 97,87 %
28.05.2022 06:30 9,9 C 9,4 C 6,1 C 86 % 1021,3 hPa 0,0 l/m 0 min 0 min 21 W/m 3,2 km/h (1 Bft) 93,62 %
28.05.2022 06:32 9,9 C 9,4 C 6,1 C 86 % 1021,4 hPa 0,0 l/m 0 min 0 min 22 W/m 6,4 km/h (2 Bft) 97,87 %
28.05.2022 06:34 9,9 C 9,4 C 6,1 C 86 % 1021,4 hPa 0,0 l/m 0 min 0 min 23 W/m 12,9 km/h (3 Bft) 100,00 %
28.05.2022 06:36 9,9 C 9,4 C 6,1 C 86 % 1021,4 hPa 0,0 l/m 0 min 0 min 23 W/m 6,4 km/h (2 Bft) 100,00 %
28.05.2022 06:38 9,9 C 9,4 C 6,1 C 86 % 1021,4 hPa 0,0 l/m 0 min 0 min 24 W/m 3,2 km/h (1 Bft) 100,00 %
28.05.2022 06:40 9,9 C 9,4 C 6,1 C 87 % 1021,5 hPa 0,0 l/m 0 min 0 min 25 W/m 6,4 km/h (2 Bft) 100,00 %
28.05.2022 06:42 9,9 C 9,4 C 6,1 C 87 % 1021,5 hPa 0,0 l/m 0 min 0 min 25 W/m 3,2 km/h (1 Bft) 100,00 %
28.05.2022 06:44 10,0 C 9,4 C 6,7 C 87 % 1021,5 hPa 0,0 l/m 0 min 0 min 25 W/m 6,4 km/h (2 Bft) 100,00 %
28.05.2022 06:46 10,0 C 9,4 C 6,1 C 87 % 1021,5 hPa 0,0 l/m 0 min 0 min 25 W/m 6,4 km/h (2 Bft) 100,00 %
28.05.2022 06:48 10,0 C 9,4 C 6,7 C 87 % 1021,5 hPa 0,0 l/m 0 min 0 min 26 W/m 9,7 km/h (2 Bft) 100,00 %
28.05.2022 06:50 10,0 C 9,4 C 6,7 C 87 % 1021,5 hPa 0,0 l/m 0 min 0 min 26 W/m 6,4 km/h (2 Bft) 100,00 %
28.05.2022 06:52 10,1 C 9,4 C 6,7 C 87 % 1021,5 hPa 0,0 l/m 0 min 0 min 26 W/m 9,7 km/h (2 Bft) 97,87 %
28.05.2022 06:54 10,1 C 9,4 C 6,7 C 87 % 1021,5 hPa 0,0 l/m 0 min 0 min 28 W/m 9,7 km/h (2 Bft) 100,00 %
28.05.2022 06:56 10,1 C 9,4 C 6,7 C 87 % 1021,5 hPa 0,0 l/m 0 min 0 min 28 W/m 6,4 km/h (2 Bft) 97,87 %
28.05.2022 06:58 10,1 C 9,4 C 6,7 C 87 % 1021,5 hPa 0,0 l/m 0 min 0 min 28 W/m 6,4 km/h (2 Bft) 100,00 %
28.05.2022 07:00 10,1 C 9,4 C 6,7 C 87 % 1021,5 hPa 0,0 l/m 0 min 0 min 28 W/m 3,2 km/h (1 Bft) 100,00 %
28.05.2022 07:02 10,2 C 10,0 C 6,7 C 87 % 1021,5 hPa 0,0 l/m 0 min 0 min 28 W/m 9,7 km/h (2 Bft) 100,00 %
28.05.2022 07:04 10,2 C 10,0 C 6,7 C 87 % 1021,5 hPa 0,0 l/m 0 min 0 min 30 W/m 6,4 km/h (2 Bft) 100,00 %
28.05.2022 07:06 10,3 C 10,0 C 6,7 C 88 % 1021,5 hPa 0,0 l/m 0 min 0 min 31 W/m 6,4 km/h (2 Bft) 50,00 %
28.05.2022 07:08 10,3 C 10,0 C 6,7 C 88 % 1021,5 hPa 0,0 l/m 0 min 0 min 32 W/m 9,7 km/h (2 Bft) 97,87 %
28.05.2022 07:10 10,3 C 10,0 C 6,7 C 88 % 1021,6 hPa 0,0 l/m 0 min 0 min 33 W/m 9,7 km/h (2 Bft) 97,83 %
28.05.2022 07:12 10,3 C 10,0 C 6,7 C 88 % 1021,5 hPa 0,0 l/m 0 min 0 min 36 W/m 6,4 km/h (2 Bft) 97,87 %
28.05.2022 07:14 10,4 C 10,0 C 6,7 C 88 % 1021,6 hPa 0,0 l/m 0 min 0 min 44 W/m 9,7 km/h (2 Bft) 95,74 %
28.05.2022 07:16 10,4 C 10,0 C 7,2 C 88 % 1021,6 hPa 0,0 l/m 0 min 0 min 70 W/m 6,4 km/h (2 Bft) 97,87 %
28.05.2022 07:18 10,6 C 10,6 C 7,2 C 88 % 1021,6 hPa 0,0 l/m 0 min 0 min 73 W/m 9,7 km/h (2 Bft) 97,87 %
28.05.2022 07:20 10,6 C 10,6 C 7,2 C 88 % 1021,6 hPa 0,0 l/m 0 min 0 min 44 W/m 6,4 km/h (2 Bft) 97,87 %
28.05.2022 07:22 10,7 C 10,6 C 7,2 C 88 % 1021,5 hPa 0,0 l/m 0 min 0 min 38 W/m 12,9 km/h (3 Bft) 97,83 %
28.05.2022 07:24 10,7 C 10,6 C 7,2 C 88 % 1021,6 hPa 0,0 l/m 0 min 0 min 37 W/m 9,7 km/h (2 Bft) 97,87 %
28.05.2022 07:26 10,8 C 10,6 C 7,2 C 88 % 1021,6 hPa 0,0 l/m 0 min 0 min 39 W/m 9,7 km/h (2 Bft) 95,74 %
28.05.2022 07:28 10,8 C 10,6 C 7,2 C 88 % 1021,6 hPa 0,0 l/m 0 min 0 min 39 W/m 6,4 km/h (2 Bft) 97,87 %
28.05.2022 07:30 10,8 C 10,6 C 7,2 C 88 % 1021,6 hPa 0,0 l/m 0 min 0 min 39 W/m 6,4 km/h (2 Bft) 97,87 %
28.05.2022 07:32 10,9 C 10,6 C 7,2 C 88 % 1021,6 hPa 0,0 l/m 0 min 0 min 39 W/m 16,1 km/h (3 Bft) 95,65 %
28.05.2022 07:34 10,9 C 10,6 C 7,2 C 88 % 1021,7 hPa 0,0 l/m 0 min 0 min 40 W/m 12,9 km/h (3 Bft) 95,74 %
28.05.2022 07:36 11,0 C 11,1 C 7,2 C 88 % 1021,6 hPa 0,0 l/m 0 min 0 min 40 W/m 9,7 km/h (2 Bft) 97,87 %
28.05.2022 07:38 11,1 C 11,1 C 7,8 C 88 % 1021,7 hPa 0,0 l/m 0 min 0 min 42 W/m 19,3 km/h (3 Bft) 97,87 %
28.05.2022 07:40 11,1 C 11,1 C 7,8 C 88 % 1021,6 hPa 0,0 l/m 0 min 0 min 42 W/m 12,9 km/h (3 Bft) 97,87 %
28.05.2022 07:42 11,2 C 11,1 C 7,8 C 88 % 1021,7 hPa 0,0 l/m 0 min 0 min 43 W/m 12,9 km/h (3 Bft) 95,74 %
28.05.2022 07:44 11,2 C 11,1 C 7,8 C 88 % 1021,6 hPa 0,0 l/m 0 min 0 min 63 W/m 9,7 km/h (2 Bft) 95,65 %
28.05.2022 07:46 11,3 C 11,1 C 7,8 C 87 % 1021,6 hPa 0,0 l/m 0 min 0 min 47 W/m 16,1 km/h (3 Bft) 95,74 %
28.05.2022 07:48 11,3 C 11,1 C 7,8 C 87 % 1021,6 hPa 0,0 l/m 0 min 0 min 46 W/m 19,3 km/h (3 Bft) 93,62 %
28.05.2022 07:50 11,4 C 11,1 C 7,8 C 87 % 1021,6 hPa 0,0 l/m 0 min 0 min 46 W/m 19,3 km/h (3 Bft) 91,49 %
28.05.2022 07:52 11,4 C 11,7 C 7,8 C 87 % 1021,6 hPa 0,0 l/m 0 min 0 min 46 W/m 16,1 km/h (3 Bft) 93,62 %
28.05.2022 07:54 11,5 C 11,7 C 7,8 C 87 % 1021,7 hPa 0,0 l/m 0 min 0 min 66 W/m 12,9 km/h (3 Bft) 93,62 %
28.05.2022 07:56 11,6 C 11,7 C 7,8 C 87 % 1021,7 hPa 0,0 l/m 2 min 0 min 202 W/m 19,3 km/h (3 Bft) 91,30 %
28.05.2022 07:58 11,6 C 11,7 C 7,8 C 86 % 1021,7 hPa 0,0 l/m 2 min 0 min 318 W/m 22,5 km/h (4 Bft) 93,62 %
28.05.2022 08:00 11,7 C 11,7 C 7,8 C 86 % 1021,7 hPa 0,0 l/m 2 min 0 min 323 W/m 16,1 km/h (3 Bft) 95,74 %
28.05.2022 08:02 11,7 C 11,7 C 7,8 C 86 % 1021,7 hPa 0,0 l/m 2 min 0 min 331 W/m 19,3 km/h (3 Bft) 91,49 %
28.05.2022 08:04 11,8 C 12,2 C 7,8 C 86 % 1021,7 hPa 0,0 l/m 2 min 0 min 337 W/m 22,5 km/h (4 Bft) 91,49 %
28.05.2022 08:06 11,9 C 12,2 C 7,8 C 85 % 1021,7 hPa 0,0 l/m 2 min 0 min 344 W/m 22,5 km/h (4 Bft) 89,36 %
28.05.2022 08:08 12,0 C 12,8 C 8,3 C 85 % 1021,7 hPa 0,0 l/m 2 min 0 min 344 W/m 16,1 km/h (3 Bft) 95,65 %
28.05.2022 08:10 12,1 C 13,3 C 8,3 C 85 % 1021,7 hPa 0,0 l/m 2 min 0 min 306 W/m 19,3 km/h (3 Bft) 95,74 %
28.05.2022 08:12 12,1 C 13,3 C 8,3 C 85 % 1021,7 hPa 0,0 l/m 2 min 0 min 299 W/m 16,1 km/h (3 Bft) 93,62 %
28.05.2022 08:14 12,3 C 13,9 C 8,3 C 85 % 1021,8 hPa 0,0 l/m 2 min 0 min 318 W/m 12,9 km/h (3 Bft) 95,74 %
28.05.2022 08:16 12,4 C 14,4 C 8,3 C 84 % 1021,8 hPa 0,0 l/m 2 min 0 min 319 W/m 12,9 km/h (3 Bft) 95,74 %
28.05.2022 08:18 12,5 C 14,4 C 8,3 C 84 % 1021,7 hPa 0,0 l/m 2 min 0 min 371 W/m 12,9 km/h (3 Bft) 95,74 %
28.05.2022 08:20 12,6 C 14,4 C 8,9 C 84 % 1021,7 hPa 0,0 l/m 2 min 0 min 394 W/m 25,7 km/h (4 Bft) 95,65 %
28.05.2022 08:22 12,7 C 14,4 C 8,9 C 83 % 1021,7 hPa 0,0 l/m 2 min 0 min 407 W/m 12,9 km/h (3 Bft) 95,74 %
28.05.2022 08:24 12,8 C 15,0 C 8,9 C 83 % 1021,8 hPa 0,0 l/m 2 min 0 min 424 W/m 12,9 km/h (3 Bft) 93,62 %
28.05.2022 08:26 12,9 C 15,0 C 9,4 C 82 % 1021,7 hPa 0,0 l/m 2 min 0 min 441 W/m 12,9 km/h (3 Bft) 95,74 %
28.05.2022 08:28 13,1 C 15,6 C 9,4 C 81 % 1021,8 hPa 0,0 l/m 2 min 0 min 441 W/m 16,1 km/h (3 Bft) 93,62 %
28.05.2022 08:30 13,1 C 15,6 C 10,0 C 80 % 1021,8 hPa 0,0 l/m 2 min 0 min 448 W/m 19,3 km/h (3 Bft) 97,87 %
28.05.2022 08:32 13,2 C 15,6 C 10,0 C 79 % 1021,8 hPa 0,0 l/m 2 min 0 min 429 W/m 19,3 km/h (3 Bft) 97,83 %
28.05.2022 08:34 13,3 C 15,6 C 10,0 C 78 % 1021,8 hPa 0,0 l/m 2 min 0 min 406 W/m 25,7 km/h (4 Bft) 97,87 %
28.05.2022 08:36 13,3 C 15,0 C 10,0 C 77 % 1021,8 hPa 0,0 l/m 2 min 0 min 270 W/m 19,3 km/h (3 Bft) 95,74 %
28.05.2022 08:38 13,3 C 15,6 C 10,6 C 77 % 1021,8 hPa 0,0 l/m 0 min 0 min 191 W/m 22,5 km/h (4 Bft) 97,87 %
28.05.2022 08:40 13,4 C 16,1 C 10,6 C 76 % 1021,8 hPa 0,0 l/m 2 min 0 min 517 W/m 22,5 km/h (4 Bft) 97,87 %
28.05.2022 08:42 13,4 C 16,7 C 11,1 C 76 % 1021,8 hPa 0,0 l/m 2 min 0 min 571 W/m 12,9 km/h (3 Bft) 97,87 %
28.05.2022 08:44 13,7 C 16,7 C 11,1 C 77 % 1021,8 hPa 0,0 l/m 2 min 0 min 594 W/m 22,5 km/h (4 Bft) 95,65 %
28.05.2022 08:46 13,7 C 15,6 C 10,6 C 75 % 1021,8 hPa 0,0 l/m 2 min 0 min 281 W/m 22,5 km/h (4 Bft) 97,87 %
28.05.2022 08:48 13,7 C 15,0 C 10,6 C 75 % 1021,9 hPa 0,0 l/m 0 min 0 min 158 W/m 32,2 km/h (5 Bft) 95,83 %
28.05.2022 08:50 13,7 C 14,4 C 10,6 C 74 % 1021,8 hPa 0,0 l/m 0 min 0 min 150 W/m 12,9 km/h (3 Bft) 97,87 %
28.05.2022 08:52 13,7 C 15,0 C 10,6 C 75 % 1021,9 hPa 0,0 l/m 0 min 0 min 146 W/m 19,3 km/h (3 Bft) 97,87 %
28.05.2022 08:54 13,7 C 15,6 C 10,6 C 75 % 1021,8 hPa 0,0 l/m 0 min 0 min 149 W/m 16,1 km/h (3 Bft) 95,74 %
28.05.2022 08:56 13,8 C 16,7 C 11,1 C 75 % 1021,8 hPa 0,0 l/m 2 min 0 min 285 W/m 19,3 km/h (3 Bft) 97,83 %
28.05.2022 08:58 13,9 C 17,8 C 11,7 C 76 % 1021,9 hPa 0,0 l/m 2 min 0 min 628 W/m 25,7 km/h (4 Bft) 95,74 %
28.05.2022 09:00 14,1 C 18,9 C 12,2 C 75 % 1021,9 hPa 0,0 l/m 2 min 0 min 623 W/m 22,5 km/h (4 Bft) 97,87 %
28.05.2022 09:02 14,3 C 19,4 C 12,8 C 74 % 1021,9 hPa 0,0 l/m 2 min 0 min 649 W/m 16,1 km/h (3 Bft) 100,00 %
28.05.2022 09:04 14,3 C 20,0 C 12,8 C 74 % 1021,8 hPa 0,0 l/m 2 min 0 min 624 W/m 16,1 km/h (3 Bft) 100,00 %
28.05.2022 09:06 14,4 C 20,6 C 13,3 C 74 % 1021,8 hPa 0,0 l/m 2 min 0 min 637 W/m 19,3 km/h (3 Bft) 100,00 %
28.05.2022 09:08 14,6 C 21,1 C 13,3 C 73 % 1021,9 hPa 0,0 l/m 2 min 0 min 624 W/m 22,5 km/h (4 Bft) 100,00 %
28.05.2022 09:10 14,7 C 20,6 C 13,3 C 72 % 1021,9 hPa 0,0 l/m 2 min 0 min 622 W/m 22,5 km/h (4 Bft) 100,00 %
28.05.2022 09:12 14,8 C 20,6 C 13,3 C 71 % 1021,9 hPa 0,0 l/m 2 min 0 min 626 W/m 16,1 km/h (3 Bft) 100,00 %
28.05.2022 09:14 14,8 C 20,6 C 13,3 C 70 % 1022,0 hPa 0,0 l/m 2 min 0 min 632 W/m 19,3 km/h (3 Bft) 97,87 %
28.05.2022 09:16 14,8 C 19,4 C 13,3 C 70 % 1022,0 hPa 0,0 l/m 2 min 0 min 659 W/m 16,1 km/h (3 Bft) 97,87 %
28.05.2022 09:18 14,8 C 18,9 C 12,8 C 69 % 1022,0 hPa 0,0 l/m 2 min 0 min 323 W/m 12,9 km/h (3 Bft) 100,00 %
28.05.2022 09:20 14,9 C 19,4 C 12,8 C 69 % 1021,9 hPa 0,0 l/m 2 min 0 min 695 W/m 22,5 km/h (4 Bft) 100,00 %
28.05.2022 09:22 15,0 C 20,0 C 13,3 C 69 % 1022,0 hPa 0,0 l/m 2 min 0 min 709 W/m 19,3 km/h (3 Bft) 100,00 %
28.05.2022 09:24 15,1 C 20,6 C 13,9 C 69 % 1021,9 hPa 0,0 l/m 2 min 0 min 720 W/m 16,1 km/h (3 Bft) 100,00 %
28.05.2022 09:26 15,3 C 21,7 C 13,9 C 69 % 1021,9 hPa 0,0 l/m 2 min 0 min 713 W/m 16,1 km/h (3 Bft) 100,00 %
28.05.2022 09:28 15,6 C 22,2 C 14,4 C 69 % 1022,0 hPa 0,0 l/m 2 min 0 min 692 W/m 16,1 km/h (3 Bft) 100,00 %
28.05.2022 09:30 15,7 C 21,7 C 14,4 C 67 % 1022,0 hPa 0,0 l/m 2 min 0 min 649 W/m 25,7 km/h (4 Bft) 100,00 %
28.05.2022 09:32 15,7 C 21,7 C 14,4 C 66 % 1021,9 hPa 0,0 l/m 2 min 0 min 655 W/m 19,3 km/h (3 Bft) 97,83 %
28.05.2022 09:34 15,8 C 21,1 C 14,4 C 66 % 1021,9 hPa 0,0 l/m 2 min 0 min 701 W/m 19,3 km/h (3 Bft) 100,00 %
28.05.2022 09:36 15,8 C 21,7 C 15,0 C 67 % 1022,0 hPa 0,0 l/m 2 min 0 min 748 W/m 12,9 km/h (3 Bft) 100,00 %
28.05.2022 09:38 15,9 C 21,1 C 15,0 C 67 % 1022,0 hPa 0,0 l/m 2 min 0 min 763 W/m 19,3 km/h (3 Bft) 100,00 %
28.05.2022 09:40 15,9 C 20,6 C 15,0 C 66 % 1021,9 hPa 0,0 l/m 2 min 0 min 782 W/m 19,3 km/h (3 Bft) 100,00 %
28.05.2022 09:42 16,0 C 20,6 C 15,0 C 64 % 1022,0 hPa 0,0 l/m 2 min 0 min 772 W/m 22,5 km/h (4 Bft) 100,00 %
28.05.2022 09:44 16,0 C 20,6 C 15,0 C 63 % 1021,9 hPa 0,0 l/m 2 min 0 min 779 W/m 12,9 km/h (3 Bft) 97,83 %
28.05.2022 09:46 15,9 C 20,0 C 15,0 C 62 % 1022,0 hPa 0,0 l/m 2 min 0 min 786 W/m 22,5 km/h (4 Bft) 95,74 %
28.05.2022 09:48 16,0 C 19,4 C 15,0 C 63 % 1022,0 hPa 0,0 l/m 2 min 0 min 747 W/m 22,5 km/h (4 Bft) 95,74 %
28.05.2022 09:50 15,9 C 19,4 C 14,4 C 64 % 1022,0 hPa 0,0 l/m 2 min 0 min 388 W/m 25,7 km/h (4 Bft) 95,74 %
28.05.2022 09:52 15,8 C 17,8 C 13,3 C 64 % 1022,0 hPa 0,0 l/m 2 min 0 min 382 W/m 29,0 km/h (5 Bft) 97,87 %
28.05.2022 09:54 15,7 C 17,2 C 12,8 C 65 % 1022,0 hPa 0,0 l/m 0 min 0 min 118 W/m 19,3 km/h (3 Bft) 97,87 %
28.05.2022 09:56 15,4 C 15,6 C 11,7 C 66 % 1022,0 hPa 0,0 l/m 0 min 0 min 98 W/m 25,7 km/h (4 Bft) 95,65 %
28.05.2022 09:58 15,2 C 15,0 C 11,7 C 66 % 1022,0 hPa 0,0 l/m 0 min 0 min 98 W/m 16,1 km/h (3 Bft) 95,74 %
28.05.2022 10:00 14,9 C 15,0 C 11,7 C 67 % 1022,0 hPa 0,0 l/m 0 min 0 min 198 W/m 16,1 km/h (3 Bft) 93,62 %
28.05.2022 10:02 14,8 C 16,1 C 12,8 C 67 % 1022,0 hPa 0,0 l/m 2 min 0 min 701 W/m 22,5 km/h (4 Bft) 97,87 %
28.05.2022 10:04 14,8 C 17,2 C 13,3 C 67 % 1022,1 hPa 0,0 l/m 2 min 0 min 710 W/m 22,5 km/h (4 Bft) 95,74 %
28.05.2022 10:06 14,8 C 17,8 C 14,4 C 67 % 1022,0 hPa 0,0 l/m 2 min 0 min 710 W/m 22,5 km/h (4 Bft) 95,74 %
28.05.2022 10:08 15,0 C 18,3 C 15,0 C 66 % 1022,0 hPa 0,0 l/m 2 min 0 min 713 W/m 22,5 km/h (4 Bft) 93,48 %
28.05.2022 10:10 15,1 C 18,9 C 14,4 C 65 % 1022,1 hPa 0,0 l/m 2 min 0 min 717 W/m 35,4 km/h (5 Bft) 95,74 %
28.05.2022 10:12 15,2 C 18,9 C 15,0 C 65 % 1021,9 hPa 0,0 l/m 2 min 0 min 721 W/m 32,2 km/h (5 Bft) 95,74 %
28.05.2022 10:14 15,3 C 18,9 C 15,0 C 63 % 1022,1 hPa 0,0 l/m 2 min 0 min 722 W/m 16,1 km/h (3 Bft) 95,74 %
28.05.2022 10:16 15,4 C 18,9 C 15,6 C 63 % 1021,9 hPa 0,0 l/m 2 min 0 min 732 W/m 9,7 km/h (2 Bft) 95,74 %
28.05.2022 10:18 15,6 C 18,3 C 16,1 C 63 % 1022,0 hPa 0,0 l/m 2 min 0 min 741 W/m 9,7 km/h (2 Bft) 93,62 %
28.05.2022 10:20 15,6 C 18,3 C 16,1 C 62 % 1022,0 hPa 0,0 l/m 2 min 0 min 765 W/m 16,1 km/h (3 Bft) 93,48 %
28.05.2022 10:22 15,7 C 17,8 C 16,1 C 62 % 1022,0 hPa 0,0 l/m 2 min 0 min 778 W/m 19,3 km/h (3 Bft) 93,62 %
28.05.2022 10:24 15,8 C 17,8 C 16,7 C 62 % 1022,0 hPa 0,0 l/m 2 min 0 min 746 W/m 16,1 km/h (3 Bft) 93,62 %
28.05.2022 10:26 15,8 C 17,8 C 16,7 C 62 % 1022,0 hPa 0,0 l/m 2 min 0 min 783 W/m 22,5 km/h (4 Bft) 93,62 %
28.05.2022 10:28 15,8 C 17,2 C 16,7 C 62 % 1022,0 hPa 0,0 l/m 2 min 0 min 796 W/m 19,3 km/h (3 Bft) 97,87 %
28.05.2022 10:30 15,8 C 17,2 C 16,1 C 61 % 1022,0 hPa 0,0 l/m 2 min 0 min 805 W/m 19,3 km/h (3 Bft) 100,00 %
28.05.2022 10:32 15,8 C 16,7 C 16,7 C 61 % 1022,0 hPa 0,0 l/m 2 min 0 min 799 W/m 22,5 km/h (4 Bft) 100,00 %
28.05.2022 10:34 15,8 C 16,7 C 16,7 C 61 % 1021,9 hPa 0,0 l/m 2 min 0 min 802 W/m 12,9 km/h (3 Bft) 100,00 %
28.05.2022 10:36 15,9 C 17,2 C 17,2 C 60 % 1021,9 hPa 0,0 l/m 2 min 0 min 826 W/m 22,5 km/h (4 Bft) 97,87 %
28.05.2022 10:38 15,9 C 17,2 C 16,7 C 60 % 1021,9 hPa 0,0 l/m 2 min 0 min 847 W/m 19,3 km/h (3 Bft) 97,87 %
28.05.2022 10:40 16,0 C 17,8 C 16,7 C 59 % 1021,9 hPa 0,0 l/m 2 min 0 min 886 W/m 16,1 km/h (3 Bft) 100,00 %
28.05.2022 10:42 16,2 C 18,3 C 16,1 C 60 % 1021,9 hPa 0,0 l/m 2 min 0 min 819 W/m 22,5 km/h (4 Bft) 100,00 %
28.05.2022 10:44 16,2 C 17,2 C 15,0 C 60 % 1021,9 hPa 0,0 l/m 2 min 0 min 361 W/m 19,3 km/h (3 Bft) 100,00 %
28.05.2022 10:46 16,0 C 16,1 C 13,9 C 59 % 1022,0 hPa 0,0 l/m 0 min 0 min 157 W/m 25,7 km/h (4 Bft) 100,00 %
28.05.2022 10:48 15,8 C 15,6 C 13,3 C 59 % 1022,0 hPa 0,0 l/m 0 min 0 min 204 W/m 19,3 km/h (3 Bft) 100,00 %
28.05.2022 10:50 15,7 C 15,6 C 12,8 C 59 % 1022,0 hPa 0,0 l/m 0 min 0 min 283 W/m 19,3 km/h (3 Bft) 97,87 %
28.05.2022 10:52 15,6 C 16,1 C 12,8 C 59 % 1022,0 hPa 0,0 l/m 0 min 0 min 166 W/m 22,5 km/h (4 Bft) 97,87 %
28.05.2022 10:54 15,4 C 16,7 C 12,8 C 58 % 1022,0 hPa 0,0 l/m 2 min 0 min 649 W/m 19,3 km/h (3 Bft) 100,00 %
28.05.2022 10:56 15,5 C 17,8 C 13,3 C 58 % 1022,0 hPa 0,0 l/m 2 min 0 min 872 W/m 22,5 km/h (4 Bft) 97,83 %
28.05.2022 10:58 15,6 C 18,9 C 13,3 C 57 % 1022,0 hPa 0,0 l/m 2 min 0 min 883 W/m 12,9 km/h (3 Bft) 100,00 %
28.05.2022 11:00 15,8 C 18,9 C 13,3 C 56 % 1022,0 hPa 0,0 l/m 2 min 0 min 894 W/m 19,3 km/h (3 Bft) 100,00 %
28.05.2022 11:02 15,9 C 18,9 C 13,3 C 57 % 1022,0 hPa 0,0 l/m 2 min 0 min 907 W/m 19,3 km/h (3 Bft) 100,00 %
28.05.2022 11:04 16,1 C 19,4 C 13,9 C 57 % 1021,9 hPa 0,0 l/m 2 min 0 min 908 W/m 19,3 km/h (3 Bft) 100,00 %
28.05.2022 11:06 16,3 C 19,4 C 13,9 C 57 % 1021,9 hPa 0,0 l/m 2 min 0 min 931 W/m 19,3 km/h (3 Bft) 100,00 %
28.05.2022 11:08 16,3 C 18,9 C 13,9 C 56 % 1021,9 hPa 0,0 l/m 2 min 0 min 978 W/m 22,5 km/h (4 Bft) 100,00 %
28.05.2022 11:10 16,4 C 18,9 C 13,9 C 57 % 1021,9 hPa 0,0 l/m 2 min 0 min 969 W/m 12,9 km/h (3 Bft) 100,00 %
28.05.2022 11:12 16,5 C 18,3 C 13,3 C 58 % 1022,0 hPa 0,0 l/m 2 min 0 min 388 W/m 12,9 km/h (3 Bft) 100,00 %
28.05.2022 11:14 16,4 C 17,2 C 13,3 C 57 % 1021,9 hPa 0,0 l/m 0 min 0 min 161 W/m 16,1 km/h (3 Bft) 100,00 %
28.05.2022 11:16 16,2 C 16,7 C 13,3 C 58 % 1022,0 hPa 0,0 l/m 0 min 0 min 195 W/m 25,7 km/h (4 Bft) 100,00 %
28.05.2022 11:18 16,2 C 16,7 C 13,3 C 58 % 1021,9 hPa 0,0 l/m 0 min 0 min 203 W/m 12,9 km/h (3 Bft) 100,00 %
28.05.2022 11:20 16,1 C 16,7 C 13,3 C 57 % 1022,0 hPa 0,0 l/m 0 min 0 min 214 W/m 25,7 km/h (4 Bft) 100,00 %
28.05.2022 11:22 15,9 C 16,1 C 12,8 C 57 % 1021,9 hPa 0,0 l/m 0 min 0 min 170 W/m 19,3 km/h (3 Bft) 100,00 %
28.05.2022 11:24 15,8 C 16,7 C 13,3 C 57 % 1021,9 hPa 0,0 l/m 2 min 0 min 400 W/m 19,3 km/h (3 Bft) 100,00 %
28.05.2022 11:26 15,8 C 17,8 C 14,4 C 57 % 1021,9 hPa 0,0 l/m 2 min 0 min 993 W/m 22,5 km/h (4 Bft) 97,87 %
28.05.2022 11:28 15,9 C 18,3 C 16,1 C 57 % 1021,9 hPa 0,0 l/m 2 min 0 min 1066 W/m 16,1 km/h (3 Bft) 100,00 %
28.05.2022 11:30 16,0 C 17,8 C 15,0 C 56 % 1021,9 hPa 0,0 l/m 2 min 0 min 449 W/m 19,3 km/h (3 Bft) 97,87 %
28.05.2022 11:32 15,9 C 17,2 C 13,9 C 56 % 1021,9 hPa 0,0 l/m 0 min 0 min 204 W/m 19,3 km/h (3 Bft) 97,83 %
28.05.2022 11:34 15,9 C 16,7 C 13,3 C 57 % 1021,8 hPa 0,0 l/m 0 min 0 min 166 W/m 19,3 km/h (3 Bft) 100,00 %
28.05.2022 11:36 15,8 C 16,1 C 12,8 C 58 % 1021,9 hPa 0,0 l/m 0 min 0 min 150 W/m 16,1 km/h (3 Bft) 100,00 %
28.05.2022 11:38 15,8 C 15,6 C 12,8 C 59 % 1021,9 hPa 0,0 l/m 0 min 0 min 156 W/m 9,7 km/h (2 Bft) 100,00 %
28.05.2022 11:40 15,7 C 16,1 C 13,3 C 60 % 1021,9 hPa 0,0 l/m 0 min 0 min 350 W/m 12,9 km/h (3 Bft) 100,00 %
28.05.2022 11:42 15,7 C 16,7 C 14,4 C 60 % 1021,9 hPa 0,0 l/m 2 min 0 min 1017 W/m 19,3 km/h (3 Bft) 100,00 %
28.05.2022 11:44 15,7 C 16,7 C 13,9 C 60 % 1021,9 hPa 0,0 l/m 2 min 0 min 559 W/m 16,1 km/h (3 Bft) 100,00 %
28.05.2022 11:46 15,7 C 17,2 C 14,4 C 59 % 1021,9 hPa 0,0 l/m 2 min 0 min 654 W/m 12,9 km/h (3 Bft) 100,00 %
28.05.2022 11:48 15,8 C 17,8 C 14,4 C 59 % 1021,8 hPa 0,0 l/m 2 min 0 min 957 W/m 12,9 km/h (3 Bft) 100,00 %
28.05.2022 11:50 15,9 C 18,3 C 15,0 C 58 % 1021,8 hPa 0,0 l/m 2 min 0 min 1000 W/m 19,3 km/h (3 Bft) 100,00 %
28.05.2022 11:52 16,2 C 19,4 C 15,6 C 59 % 1021,8 hPa 0,0 l/m 2 min 0 min 1063 W/m 16,1 km/h (3 Bft) 97,87 %
28.05.2022 11:54 16,3 C 18,9 C 15,0 C 56 % 1021,7 hPa 0,0 l/m 2 min 0 min 1074 W/m 25,7 km/h (4 Bft) 100,00 %
28.05.2022 11:56 16,4 C 17,8 C 13,9 C 56 % 1021,8 hPa 0,0 l/m 0 min 0 min 213 W/m 25,7 km/h (4 Bft) 100,00 %
28.05.2022 11:58 16,3 C 16,7 C 13,3 C 56 % 1021,8 hPa 0,0 l/m 0 min 0 min 154 W/m 25,7 km/h (4 Bft) 95,74 %
28.05.2022 12:00 16,2 C 16,7 C 13,9 C 56 % 1021,8 hPa 0,0 l/m 0 min 0 min 198 W/m 19,3 km/h (3 Bft) 100,00 %
28.05.2022 12:02 16,2 C 17,2 C 15,0 C 56 % 1021,8 hPa 0,0 l/m 2 min 0 min 966 W/m 19,3 km/h (3 Bft) 97,87 %
28.05.2022 12:04 16,3 C 18,3 C 15,0 C 56 % 1021,6 hPa 0,0 l/m 2 min 0 min 1042 W/m 19,3 km/h (3 Bft) 97,87 %
28.05.2022 12:08 16,4 C 17,8 C 16,1 C 54 % 1021,7 hPa 0,0 l/m 4 min 0 min 1069 W/m 25,7 km/h (4 Bft) 96,81 %
28.05.2022 12:10 16,4 C 17,8 C 15,0 C 56 % 1021,6 hPa 0,0 l/m 2 min 0 min 488 W/m 16,1 km/h (3 Bft) 95,74 %
28.05.2022 12:12 16,3 C 16,7 C 14,4 C 56 % 1021,7 hPa 0,0 l/m 0 min 0 min 267 W/m 22,5 km/h (4 Bft) 97,87 %
28.05.2022 12:14 16,2 C 16,7 C 13,9 C 56 % 1021,7 hPa 0,0 l/m 0 min 0 min 237 W/m 9,7 km/h (2 Bft) 95,74 %
28.05.2022 12:16 16,1 C 16,1 C 13,3 C 57 % 1021,7 hPa 0,0 l/m 0 min 0 min 194 W/m 16,1 km/h (3 Bft) 95,74 %
28.05.2022 12:18 16,1 C 16,1 C 13,9 C 57 % 1021,6 hPa 0,0 l/m 0 min 0 min 167 W/m 12,9 km/h (3 Bft) 95,74 %
28.05.2022 12:20 16,1 C 17,2 C 16,7 C 57 % 1021,6 hPa 0,0 l/m 2 min 0 min 636 W/m 12,9 km/h (3 Bft) 95,65 %
28.05.2022 12:22 16,2 C 18,3 C 18,9 C 58 % 1021,7 hPa 0,0 l/m 2 min 0 min 976 W/m 16,1 km/h (3 Bft) 95,74 %
28.05.2022 12:24 16,3 C 18,9 C 18,9 C 57 % 1021,6 hPa 0,0 l/m 2 min 0 min 979 W/m 25,7 km/h (4 Bft) 95,74 %
28.05.2022 12:26 16,6 C 18,9 C 20,0 C 57 % 1021,5 hPa 0,0 l/m 2 min 0 min 986 W/m 19,3 km/h (3 Bft) 95,74 %
28.05.2022 12:28 16,7 C 19,4 C 20,6 C 56 % 1021,6 hPa 0,0 l/m 2 min 0 min 976 W/m 22,5 km/h (4 Bft) 93,62 %
28.05.2022 12:30 16,9 C 19,4 C 21,7 C 55 % 1021,5 hPa 0,0 l/m 2 min 0 min 972 W/m 25,7 km/h (4 Bft) 95,74 %
28.05.2022 12:32 17,1 C 19,4 C 22,2 C 54 % 1021,4 hPa 0,0 l/m 2 min 0 min 990 W/m 25,7 km/h (4 Bft) 95,65 %
28.05.2022 12:34 17,2 C 19,4 C 21,7 C 53 % 1021,5 hPa 0,0 l/m 2 min 0 min 1028 W/m 22,5 km/h (4 Bft) 95,74 %
28.05.2022 12:36 17,3 C 19,4 C 22,2 C 53 % 1021,4 hPa 0,0 l/m 2 min 0 min 1079 W/m 16,1 km/h (3 Bft) 97,87 %
28.05.2022 12:38 17,5 C 20,0 C 21,1 C 53 % 1021,5 hPa 0,0 l/m 2 min 0 min 1114 W/m 19,3 km/h (3 Bft) 95,74 %
28.05.2022 12:40 17,6 C 20,0 C 20,6 C 51 % 1021,5 hPa 0,0 l/m 2 min 0 min 1101 W/m 29,0 km/h (5 Bft) 97,87 %
28.05.2022 12:42 17,7 C 20,0 C 21,7 C 51 % 1021,4 hPa 0,0 l/m 2 min 0 min 1061 W/m 22,5 km/h (4 Bft) 97,87 %
28.05.2022 12:44 17,8 C 20,0 C 21,7 C 51 % 1021,5 hPa 0,0 l/m 2 min 0 min 1050 W/m 29,0 km/h (5 Bft) 97,83 %
28.05.2022 12:46 17,8 C 20,0 C 21,7 C 49 % 1021,4 hPa 0,0 l/m 2 min 0 min 1058 W/m 19,3 km/h (3 Bft) 95,74 %
28.05.2022 12:48 17,9 C 20,0 C 21,7 C 50 % 1021,5 hPa 0,0 l/m 2 min 0 min 1088 W/m 25,7 km/h (4 Bft) 93,62 %
28.05.2022 12:50 18,0 C 20,0 C 21,1 C 50 % 1021,4 hPa 0,0 l/m 2 min 0 min 1161 W/m 12,9 km/h (3 Bft) 100,00 %
28.05.2022 12:52 17,9 C 18,9 C 18,3 C 50 % 1021,4 hPa 0,0 l/m 2 min 0 min 872 W/m 25,7 km/h (4 Bft) 97,87 %
28.05.2022 12:54 17,8 C 17,8 C 16,1 C 50 % 1021,4 hPa 0,0 l/m 0 min 0 min 192 W/m 29,0 km/h (5 Bft) 100,00 %
28.05.2022 12:56 17,5 C 17,2 C 15,0 C 50 % 1021,4 hPa 0,0 l/m 0 min 0 min 204 W/m 19,3 km/h (3 Bft) 97,83 %
28.05.2022 12:58 17,3 C 17,2 C 16,1 C 51 % 1021,4 hPa 0,0 l/m 0 min 0 min 263 W/m 16,1 km/h (3 Bft) 97,87 %
28.05.2022 13:00 17,3 C 18,3 C 18,3 C 51 % 1021,4 hPa 0,0 l/m 2 min 0 min 1070 W/m 19,3 km/h (3 Bft) 97,87 %
28.05.2022 13:02 17,4 C 18,9 C 19,4 C 51 % 1021,4 hPa 0,0 l/m 2 min 0 min 1145 W/m 25,7 km/h (4 Bft) 95,74 %
28.05.2022 13:04 17,6 C 19,4 C 20,0 C 50 % 1021,3 hPa 0,0 l/m 2 min 0 min 1134 W/m 22,5 km/h (4 Bft) 100,00 %
28.05.2022 13:06 17,7 C 20,6 C 21,1 C 51 % 1021,3 hPa 0,0 l/m 2 min 0 min 1170 W/m 16,1 km/h (3 Bft) 97,87 %
28.05.2022 13:08 17,9 C 20,0 C 20,0 C 50 % 1021,3 hPa 0,0 l/m 2 min 0 min 994 W/m 22,5 km/h (4 Bft) 100,00 %
28.05.2022 13:10 17,9 C 19,4 C 18,3 C 51 % 1021,3 hPa 0,0 l/m 0 min 0 min 282 W/m 12,9 km/h (3 Bft) 95,74 %
28.05.2022 13:12 17,9 C 18,9 C 16,7 C 52 % 1021,3 hPa 0,0 l/m 0 min 0 min 292 W/m 22,5 km/h (4 Bft) 100,00 %
28.05.2022 13:14 17,8 C 18,3 C 15,6 C 51 % 1021,3 hPa 0,0 l/m 0 min 0 min 309 W/m 16,1 km/h (3 Bft) 100,00 %
28.05.2022 13:16 17,6 C 18,3 C 17,2 C 51 % 1021,3 hPa 0,0 l/m 0 min 0 min 283 W/m 19,3 km/h (3 Bft) 100,00 %
28.05.2022 13:18 17,6 C 18,9 C 18,3 C 52 % 1021,3 hPa 0,0 l/m 2 min 0 min 1081 W/m 12,9 km/h (3 Bft) 97,87 %
28.05.2022 13:20 17,7 C 18,9 C 18,9 C 53 % 1021,3 hPa 0,0 l/m 2 min 0 min 962 W/m 19,3 km/h (3 Bft) 95,65 %
28.05.2022 13:22 17,8 C 19,4 C 20,0 C 53 % 1021,2 hPa 0,0 l/m 2 min 0 min 629 W/m 22,5 km/h (4 Bft) 100,00 %
28.05.2022 13:24 17,9 C 19,4 C 20,0 C 52 % 1021,2 hPa 0,0 l/m 2 min 0 min 1095 W/m 19,3 km/h (3 Bft) 100,00 %
28.05.2022 13:26 18,1 C 20,6 C 21,7 C 53 % 1021,2 hPa 0,0 l/m 2 min 0 min 1117 W/m 16,1 km/h (3 Bft) 100,00 %
28.05.2022 13:28 18,2 C 20,6 C 22,2 C 53 % 1021,2 hPa 0,0 l/m 2 min 0 min 1141 W/m 16,1 km/h (3 Bft) 95,74 %
28.05.2022 13:30 18,3 C 20,0 C 21,1 C 54 % 1021,2 hPa 0,0 l/m 2 min 0 min 1141 W/m 22,5 km/h (4 Bft) 47,37 %
28.05.2022 13:32 18,3 C 19,4 C 20,0 C 53 % 1021,2 hPa 0,0 l/m 2 min 0 min 938 W/m 16,1 km/h (3 Bft) 100,00 %
28.05.2022 13:34 18,2 C 18,3 C 17,2 C 52 % 1021,1 hPa 0,0 l/m 0 min 0 min 296 W/m 29,0 km/h (5 Bft) 100,00 %
28.05.2022 13:36 17,9 C 17,8 C 15,6 C 52 % 1021,3 hPa 0,0 l/m 0 min 0 min 277 W/m 32,2 km/h (5 Bft) 100,00 %
28.05.2022 13:38 17,6 C 17,2 C 15,0 C 51 % 1021,3 hPa 0,0 l/m 0 min 0 min 293 W/m 22,5 km/h (4 Bft) 97,87 %
28.05.2022 13:40 17,4 C 17,2 C 15,6 C 53 % 1021,2 hPa 0,0 l/m 0 min 0 min 329 W/m 16,1 km/h (3 Bft) 97,87 %
28.05.2022 13:42 17,3 C 17,8 C 16,1 C 53 % 1021,2 hPa 0,0 l/m 0 min 0 min 334 W/m 12,9 km/h (3 Bft) 97,83 %
28.05.2022 13:44 17,3 C 18,3 C 18,3 C 53 % 1021,2 hPa 0,0 l/m 2 min 0 min 844 W/m 9,7 km/h (2 Bft) 97,87 %
28.05.2022 13:46 17,3 C 19,4 C 19,4 C 52 % 1021,1 hPa 0,0 l/m 2 min 0 min 989 W/m 22,5 km/h (4 Bft) 97,87 %
28.05.2022 13:48 17,4 C 20,0 C 20,6 C 53 % 1021,0 hPa 0,0 l/m 2 min 0 min 1023 W/m 16,1 km/h (3 Bft) 97,87 %
28.05.2022 13:50 17,5 C 20,0 C 19,4 C 52 % 1021,1 hPa 0,0 l/m 2 min 0 min 1034 W/m 22,5 km/h (4 Bft) 95,74 %
28.05.2022 13:52 17,7 C 20,6 C 18,9 C 52 % 1021,1 hPa 0,0 l/m 2 min 0 min 1065 W/m 16,1 km/h (3 Bft) 97,87 %
28.05.2022 13:54 17,9 C 21,7 C 18,9 C 54 % 1021,0 hPa 0,0 l/m 2 min 0 min 1112 W/m 19,3 km/h (3 Bft) 97,87 %
28.05.2022 13:56 18,2 C 21,7 C 18,9 C 53 % 1020,9 hPa 0,0 l/m 2 min 0 min 1155 W/m 12,9 km/h (3 Bft) 95,65 %
28.05.2022 13:58 18,3 C 21,7 C 17,8 C 52 % 1020,9 hPa 0,0 l/m 2 min 0 min 1155 W/m 25,7 km/h (4 Bft) 95,74 %
28.05.2022 14:00 18,4 C 20,6 C 17,2 C 50 % 1020,9 hPa 0,0 l/m 2 min 0 min 1155 W/m 19,3 km/h (3 Bft) 93,62 %
28.05.2022 14:02 18,3 C 20,0 C 16,1 C 48 % 1021,1 hPa 0,0 l/m 2 min 0 min 1155 W/m 25,7 km/h (4 Bft) 93,62 %
28.05.2022 14:04 18,3 C 20,6 C 15,6 C 48 % 1020,9 hPa 0,0 l/m 2 min 0 min 1090 W/m 16,1 km/h (3 Bft) 93,62 %
28.05.2022 14:06 18,4 C 21,1 C 15,6 C 48 % 1020,9 hPa 0,0 l/m 2 min 0 min 1107 W/m 16,1 km/h (3 Bft) 93,48 %
28.05.2022 14:08 18,6 C 22,2 C 16,1 C 48 % 1020,9 hPa 0,0 l/m 2 min 0 min 1157 W/m 9,7 km/h (2 Bft) 95,74 %
28.05.2022 14:10 18,8 C 22,2 C 16,1 C 49 % 1020,8 hPa 0,0 l/m 2 min 0 min 857 W/m 16,1 km/h (3 Bft) 95,74 %
28.05.2022 14:12 18,9 C 22,2 C 16,1 C 48 % 1020,8 hPa 0,0 l/m 2 min 0 min 856 W/m 22,5 km/h (4 Bft) 95,74 %
28.05.2022 14:14 19,1 C 22,2 C 16,1 C 48 % 1020,7 hPa 0,0 l/m 2 min 0 min 855 W/m 16,1 km/h (3 Bft) 95,74 %
28.05.2022 14:16 19,1 C 20,6 C 15,6 C 47 % 1020,7 hPa 0,0 l/m 0 min 0 min 400 W/m 35,4 km/h (5 Bft) 95,74 %
28.05.2022 14:18 19,0 C 19,4 C 15,0 C 47 % 1020,8 hPa 0,0 l/m 0 min 0 min 335 W/m 25,7 km/h (4 Bft) 93,48 %
28.05.2022 14:20 18,8 C 18,9 C 15,0 C 47 % 1020,7 hPa 0,0 l/m 0 min 0 min 348 W/m 25,7 km/h (4 Bft) 95,74 %
28.05.2022 14:22 18,6 C 18,9 C 14,4 C 48 % 1020,7 hPa 0,0 l/m 0 min 0 min 308 W/m 12,9 km/h (3 Bft) 93,62 %
28.05.2022 14:24 18,4 C 18,3 C 14,4 C 48 % 1020,7 hPa 0,0 l/m 0 min 0 min 294 W/m 25,7 km/h (4 Bft) 95,74 %
28.05.2022 14:26 18,2 C 17,8 C 14,4 C 49 % 1020,6 hPa 0,0 l/m 0 min 0 min 293 W/m 32,2 km/h (5 Bft) 95,74 %
28.05.2022 14:28 17,9 C 17,8 C 13,9 C 50 % 1020,7 hPa 0,0 l/m 0 min 0 min 304 W/m 25,7 km/h (4 Bft) 91,49 %
28.05.2022 14:30 17,8 C 17,8 C 13,9 C 50 % 1020,6 hPa 0,0 l/m 0 min 0 min 331 W/m 19,3 km/h (3 Bft) 97,83 %
28.05.2022 14:32 17,8 C 19,4 C 14,4 C 50 % 1020,7 hPa 0,0 l/m 2 min 0 min 630 W/m 22,5 km/h (4 Bft) 97,87 %
28.05.2022 14:34 17,8 C 18,9 C 14,4 C 49 % 1020,6 hPa 0,0 l/m 2 min 0 min 1078 W/m 29,0 km/h (5 Bft) 97,87 %
28.05.2022 14:36 17,7 C 18,3 C 14,4 C 49 % 1020,6 hPa 0,0 l/m 0 min 0 min 210 W/m 12,9 km/h (3 Bft) 97,87 %
28.05.2022 14:38 17,7 C 18,3 C 13,9 C 49 % 1020,5 hPa 0,0 l/m 0 min 0 min 217 W/m 22,5 km/h (4 Bft) 100,00 %
28.05.2022 14:40 17,7 C 19,4 C 13,9 C 50 % 1020,6 hPa 0,0 l/m 2 min 0 min 1053 W/m 9,7 km/h (2 Bft) 97,87 %
28.05.2022 14:42 17,9 C 20,6 C 14,4 C 50 % 1020,5 hPa 0,0 l/m 2 min 0 min 1086 W/m 9,7 km/h (2 Bft) 97,83 %
28.05.2022 14:44 18,2 C 21,1 C 14,4 C 48 % 1020,5 hPa 0,0 l/m 2 min 0 min 1125 W/m 22,5 km/h (4 Bft) 97,87 %
28.05.2022 14:46 18,3 C 21,1 C 15,0 C 49 % 1020,5 hPa 0,0 l/m 2 min 0 min 1039 W/m 16,1 km/h (3 Bft) 97,87 %
28.05.2022 14:48 18,4 C 20,6 C 15,0 C 49 % 1020,5 hPa 0,0 l/m 0 min 0 min 261 W/m 16,1 km/h (3 Bft) 97,87 %
28.05.2022 14:50 18,4 C 19,4 C 14,4 C 49 % 1020,5 hPa 0,0 l/m 0 min 0 min 232 W/m 19,3 km/h (3 Bft) 97,87 %
28.05.2022 14:52 18,3 C 18,9 C 14,4 C 49 % 1020,6 hPa 0,0 l/m 0 min 0 min 211 W/m 22,5 km/h (4 Bft) 97,87 %
28.05.2022 14:54 18,2 C 18,3 C 14,4 C 50 % 1020,6 hPa 0,0 l/m 0 min 0 min 205 W/m 19,3 km/h (3 Bft) 97,83 %
28.05.2022 14:56 18,0 C 17,8 C 13,9 C 51 % 1020,6 hPa 0,0 l/m 0 min 0 min 224 W/m 12,9 km/h (3 Bft) 97,87 %
28.05.2022 14:58 17,8 C 17,8 C 13,9 C 52 % 1020,6 hPa 0,0 l/m 0 min 0 min 261 W/m 16,1 km/h (3 Bft) 97,87 %
28.05.2022 15:00 17,7 C 17,2 C 13,9 C 51 % 1020,6 hPa 0,0 l/m 0 min 0 min 299 W/m 22,5 km/h (4 Bft) 97,87 %
28.05.2022 15:02 17,6 C 17,2 C 13,3 C 51 % 1020,5 hPa 0,0 l/m 0 min 0 min 324 W/m 25,7 km/h (4 Bft) 95,74 %
28.05.2022 15:04 17,5 C 17,8 C 13,9 C 52 % 1020,5 hPa 0,0 l/m 0 min 0 min 338 W/m 12,9 km/h (3 Bft) 95,74 %
28.05.2022 15:06 17,4 C 17,8 C 13,9 C 52 % 1020,5 hPa 0,0 l/m 0 min 0 min 349 W/m 19,3 km/h (3 Bft) 95,65 %
28.05.2022 15:08 17,4 C 19,4 C 14,4 C 51 % 1020,5 hPa 0,0 l/m 2 min 0 min 689 W/m 22,5 km/h (4 Bft) 97,87 %
28.05.2022 15:10 17,5 C 20,0 C 14,4 C 51 % 1020,4 hPa 0,0 l/m 2 min 0 min 1069 W/m 12,9 km/h (3 Bft) 97,87 %
28.05.2022 15:12 17,7 C 20,6 C 14,4 C 53 % 1020,4 hPa 0,0 l/m 2 min 0 min 1052 W/m 16,1 km/h (3 Bft) 97,87 %
28.05.2022 15:14 17,8 C 21,1 C 14,4 C 52 % 1020,4 hPa 0,0 l/m 2 min 0 min 953 W/m 29,0 km/h (5 Bft) 97,87 %
28.05.2022 15:16 18,1 C 21,1 C 15,0 C 53 % 1020,4 hPa 0,0 l/m 2 min 0 min 806 W/m 12,9 km/h (3 Bft) 97,87 %
28.05.2022 15:18 18,2 C 21,7 C 15,0 C 50 % 1020,4 hPa 0,0 l/m 2 min 0 min 1074 W/m 12,9 km/h (3 Bft) 100,00 %
28.05.2022 15:20 18,4 C 21,7 C 15,0 C 50 % 1020,4 hPa 0,0 l/m 2 min 0 min 1020 W/m 9,7 km/h (2 Bft) 97,87 %
28.05.2022 15:22 18,6 C 22,2 C 15,0 C 51 % 1020,3 hPa 0,0 l/m 2 min 0 min 976 W/m 19,3 km/h (3 Bft) 95,74 %
28.05.2022 15:24 18,7 C 21,7 C 15,0 C 47 % 1020,4 hPa 0,0 l/m 2 min 0 min 971 W/m 25,7 km/h (4 Bft) 97,87 %
28.05.2022 15:26 18,8 C 21,1 C 15,0 C 48 % 1020,3 hPa 0,0 l/m 2 min 0 min 989 W/m 22,5 km/h (4 Bft) 97,87 %
28.05.2022 15:28 18,8 C 21,1 C 15,0 C 48 % 1020,3 hPa 0,0 l/m 2 min 0 min 1023 W/m 19,3 km/h (3 Bft) 97,87 %
28.05.2022 15:30 18,9 C 22,2 C 15,0 C 49 % 1020,1 hPa 0,0 l/m 2 min 0 min 1079 W/m 12,9 km/h (3 Bft) 97,83 %
28.05.2022 15:32 19,0 C 21,1 C 15,6 C 49 % 1020,1 hPa 0,0 l/m 2 min 0 min 787 W/m 19,3 km/h (3 Bft) 95,74 %
28.05.2022 15:34 18,9 C 21,1 C 15,6 C 49 % 1020,0 hPa 0,0 l/m 2 min 0 min 784 W/m 25,7 km/h (4 Bft) 97,87 %
28.05.2022 15:36 19,0 C 21,1 C 15,0 C 47 % 1020,3 hPa 0,0 l/m 2 min 0 min 782 W/m 35,4 km/h (5 Bft) 95,74 %
28.05.2022 15:38 19,0 C 21,1 C 15,0 C 46 % 1020,3 hPa 0,0 l/m 2 min 0 min 779 W/m 38,6 km/h (5 Bft) 100,00 %
28.05.2022 15:40 18,9 C 21,1 C 15,6 C 47 % 1020,2 hPa 0,0 l/m 2 min 0 min 730 W/m 16,1 km/h (3 Bft) 100,00 %
28.05.2022 15:42 18,9 C 21,1 C 15,0 C 47 % 1020,2 hPa 0,0 l/m 2 min 0 min 717 W/m 16,1 km/h (3 Bft) 97,83 %
28.05.2022 15:44 18,9 C 21,1 C 15,0 C 48 % 1020,1 hPa 0,0 l/m 2 min 0 min 934 W/m 19,3 km/h (3 Bft) 100,00 %
28.05.2022 15:46 18,9 C 21,1 C 15,0 C 48 % 1020,1 hPa 0,0 l/m 2 min 0 min 768 W/m 16,1 km/h (3 Bft) 100,00 %
28.05.2022 15:48 18,9 C 21,7 C 15,0 C 48 % 1020,1 hPa 0,0 l/m 2 min 0 min 765 W/m 12,9 km/h (3 Bft) 100,00 %
28.05.2022 15:50 18,9 C 22,2 C 15,0 C 48 % 1020,2 hPa 0,0 l/m 2 min 0 min 1054 W/m 12,9 km/h (3 Bft) 97,87 %
28.05.2022 15:52 19,0 C 22,2 C 15,0 C 49 % 1020,1 hPa 0,0 l/m 2 min 0 min 759 W/m 16,1 km/h (3 Bft) 97,87 %
28.05.2022 15:54 19,0 C 21,1 C 15,0 C 49 % 1020,1 hPa 0,0 l/m 2 min 0 min 484 W/m 16,1 km/h (3 Bft) 97,83 %
28.05.2022 15:56 18,9 C 20,0 C 15,0 C 50 % 1020,1 hPa 0,0 l/m 2 min 0 min 500 W/m 22,5 km/h (4 Bft) 97,87 %
28.05.2022 15:58 18,8 C 20,0 C 14,4 C 50 % 1020,3 hPa 0,0 l/m 0 min 0 min 351 W/m 29,0 km/h (5 Bft) 97,87 %
28.05.2022 16:00 18,8 C 20,0 C 14,4 C 50 % 1020,2 hPa 0,0 l/m 0 min 0 min 357 W/m 25,7 km/h (4 Bft) 97,87 %
28.05.2022 16:02 18,7 C 20,6 C 15,0 C 50 % 1020,1 hPa 0,0 l/m 0 min 0 min 357 W/m 32,2 km/h (5 Bft) 97,87 %
28.05.2022 16:04 18,7 C 21,1 C 15,0 C 50 % 1020,1 hPa 0,0 l/m 0 min 0 min 357 W/m 25,7 km/h (4 Bft) 97,87 %
28.05.2022 16:06 18,6 C 20,0 C 15,0 C 48 % 1020,1 hPa 0,0 l/m 0 min 0 min 341 W/m 19,3 km/h (3 Bft) 95,65 %
28.05.2022 16:08 18,5 C 20,0 C 15,0 C 48 % 1020,1 hPa 0,0 l/m 0 min 0 min 302 W/m 16,1 km/h (3 Bft) 97,87 %
28.05.2022 16:10 18,4 C 18,9 C 14,4 C 49 % 1020,1 hPa 0,0 l/m 0 min 0 min 302 W/m 22,5 km/h (4 Bft) 95,74 %
28.05.2022 16:12 18,3 C 20,0 C 14,4 C 48 % 1020,1 hPa 0,0 l/m 0 min 0 min 304 W/m 29,0 km/h (5 Bft) 97,87 %
28.05.2022 16:14 18,3 C 21,1 C 14,4 C 50 % 1020,1 hPa 0,0 l/m 2 min 0 min 379 W/m 12,9 km/h (3 Bft) 97,87 %
28.05.2022 16:16 18,3 C 21,1 C 15,0 C 50 % 1020,0 hPa 0,0 l/m 2 min 0 min 722 W/m 25,7 km/h (4 Bft) 97,87 %
28.05.2022 16:18 18,3 C 22,2 C 15,0 C 48 % 1020,0 hPa 0,0 l/m 2 min 0 min 719 W/m 38,6 km/h (5 Bft) 97,83 %
28.05.2022 16:20 18,4 C 21,7 C 15,0 C 48 % 1020,0 hPa 0,0 l/m 2 min 0 min 883 W/m 25,7 km/h (4 Bft) 95,74 %
28.05.2022 16:22 18,4 C 20,6 C 15,0 C 48 % 1020,0 hPa 0,0 l/m 2 min 0 min 380 W/m 22,5 km/h (4 Bft) 97,87 %
28.05.2022 16:24 18,3 C 19,4 C 14,4 C 50 % 1020,0 hPa 0,0 l/m 0 min 0 min 260 W/m 22,5 km/h (4 Bft) 97,87 %
28.05.2022 16:26 18,2 C 18,3 C 14,4 C 51 % 1020,0 hPa 0,0 l/m 0 min 0 min 239 W/m 12,9 km/h (3 Bft) 97,87 %
28.05.2022 16:28 18,0 C 17,8 C 13,9 C 52 % 1020,0 hPa 0,0 l/m 0 min 0 min 250 W/m 22,5 km/h (4 Bft) 97,83 %
28.05.2022 16:30 17,8 C 17,2 C 13,9 C 52 % 1020,0 hPa 0,0 l/m 0 min 0 min 266 W/m 19,3 km/h (3 Bft) 97,87 %
28.05.2022 16:32 17,6 C 17,2 C 13,9 C 53 % 1020,0 hPa 0,0 l/m 0 min 0 min 285 W/m 12,9 km/h (3 Bft) 97,87 %
28.05.2022 16:34 17,6 C 17,8 C 13,9 C 54 % 1020,0 hPa 0,0 l/m 2 min 0 min 362 W/m 9,7 km/h (2 Bft) 97,87 %
28.05.2022 16:36 17,5 C 18,3 C 13,9 C 53 % 1020,0 hPa 0,0 l/m 2 min 0 min 365 W/m 12,9 km/h (3 Bft) 100,00 %
28.05.2022 16:38 17,4 C 19,4 C 13,9 C 53 % 1020,0 hPa 0,0 l/m 2 min 0 min 343 W/m 22,5 km/h (4 Bft) 100,00 %
28.05.2022 16:40 17,5 C 21,1 C 14,4 C 52 % 1019,9 hPa 0,0 l/m 2 min 0 min 782 W/m 16,1 km/h (3 Bft) 100,00 %
28.05.2022 16:42 17,6 C 21,7 C 15,0 C 52 % 1020,0 hPa 0,0 l/m 2 min 0 min 676 W/m 22,5 km/h (4 Bft) 100,00 %
28.05.2022 16:44 17,8 C 21,7 C 15,0 C 50 % 1020,0 hPa 0,0 l/m 2 min 0 min 672 W/m 19,3 km/h (3 Bft) 100,00 %
28.05.2022 16:46 17,9 C 22,2 C 15,0 C 51 % 1020,0 hPa 0,0 l/m 2 min 0 min 919 W/m 19,3 km/h (3 Bft) 100,00 %
28.05.2022 16:48 18,0 C 20,6 C 15,0 C 51 % 1020,0 hPa 0,0 l/m 2 min 0 min 891 W/m 22,5 km/h (4 Bft) 100,00 %
28.05.2022 16:50 18,1 C 18,9 C 14,4 C 50 % 1020,1 hPa 0,0 l/m 0 min 0 min 236 W/m 25,7 km/h (4 Bft) 100,00 %
28.05.2022 16:52 17,9 C 18,3 C 13,9 C 50 % 1020,0 hPa 0,0 l/m 0 min 0 min 217 W/m 16,1 km/h (3 Bft) 100,00 %
28.05.2022 16:54 17,8 C 17,8 C 13,9 C 50 % 1020,0 hPa 0,0 l/m 0 min 0 min 215 W/m 22,5 km/h (4 Bft) 97,87 %
28.05.2022 16:56 17,8 C 17,2 C 13,9 C 51 % 1020,0 hPa 0,0 l/m 0 min 0 min 218 W/m 12,9 km/h (3 Bft) 97,87 %
28.05.2022 16:58 17,7 C 17,2 C 13,9 C 51 % 1020,0 hPa 0,0 l/m 0 min 0 min 217 W/m 16,1 km/h (3 Bft) 100,00 %
28.05.2022 17:00 17,4 C 17,2 C 13,9 C 51 % 1019,9 hPa 0,0 l/m 0 min 0 min 231 W/m 19,3 km/h (3 Bft) 100,00 %
28.05.2022 17:02 17,3 C 17,2 C 13,3 C 52 % 1020,0 hPa 0,0 l/m 0 min 0 min 209 W/m 16,1 km/h (3 Bft) 100,00 %
28.05.2022 17:04 17,2 C 17,2 C 13,3 C 53 % 1019,9 hPa 0,0 l/m 0 min 0 min 215 W/m 12,9 km/h (3 Bft) 100,00 %
28.05.2022 17:06 17,1 C 17,2 C 13,3 C 52 % 1020,0 hPa 0,0 l/m 0 min 0 min 229 W/m 12,9 km/h (3 Bft) 97,87 %
28.05.2022 17:08 17,0 C 17,2 C 13,3 C 51 % 1019,9 hPa 0,0 l/m 0 min 0 min 238 W/m 16,1 km/h (3 Bft) 100,00 %
28.05.2022 17:10 16,9 C 17,2 C 13,3 C 51 % 1019,9 hPa 0,0 l/m 0 min 0 min 250 W/m 19,3 km/h (3 Bft) 100,00 %
28.05.2022 17:12 16,9 C 17,2 C 13,3 C 52 % 1019,9 hPa 0,0 l/m 0 min 0 min 255 W/m 12,9 km/h (3 Bft) 100,00 %
28.05.2022 17:14 16,9 C 17,2 C 13,3 C 53 % 1020,0 hPa 0,0 l/m 0 min 0 min 269 W/m 29,0 km/h (5 Bft) 97,87 %
28.05.2022 17:16 16,9 C 17,2 C 13,3 C 53 % 1019,9 hPa 0,0 l/m 0 min 0 min 270 W/m 22,5 km/h (4 Bft) 97,83 %
28.05.2022 17:18 16,8 C 17,2 C 13,3 C 53 % 1019,9 hPa 0,0 l/m 0 min 0 min 285 W/m 16,1 km/h (3 Bft) 100,00 %
28.05.2022 17:20 16,8 C 17,2 C 13,3 C 53 % 1019,9 hPa 0,0 l/m 0 min 0 min 290 W/m 22,5 km/h (4 Bft) 97,87 %
28.05.2022 17:22 16,8 C 17,2 C 13,3 C 53 % 1019,9 hPa 0,0 l/m 2 min 0 min 319 W/m 16,1 km/h (3 Bft) 100,00 %
28.05.2022 17:24 16,8 C 17,2 C 13,3 C 53 % 1019,9 hPa 0,0 l/m 2 min 0 min 318 W/m 29,0 km/h (5 Bft) 100,00 %
28.05.2022 17:26 16,8 C 17,8 C 13,3 C 53 % 1019,9 hPa 0,0 l/m 2 min 0 min 308 W/m 19,3 km/h (3 Bft) 100,00 %
28.05.2022 17:28 16,9 C 18,9 C 13,3 C 53 % 1019,8 hPa 0,0 l/m 2 min 0 min 315 W/m 22,5 km/h (4 Bft) 100,00 %
28.05.2022 17:30 17,0 C 18,9 C 13,9 C 53 % 1019,8 hPa 0,0 l/m 2 min 0 min 284 W/m 19,3 km/h (3 Bft) 97,87 %
28.05.2022 17:32 17,0 C 18,9 C 13,9 C 53 % 1019,8 hPa 0,0 l/m 0 min 0 min 241 W/m 16,1 km/h (3 Bft) 97,87 %
28.05.2022 17:34 17,0 C 17,8 C 13,3 C 52 % 1019,9 hPa 0,0 l/m 0 min 0 min 228 W/m 22,5 km/h (4 Bft) 97,87 %
28.05.2022 17:36 17,0 C 17,8 C 13,3 C 52 % 1019,8 hPa 0,0 l/m 0 min 0 min 219 W/m 16,1 km/h (3 Bft) 97,87 %
28.05.2022 17:38 16,9 C 17,2 C 13,3 C 52 % 1019,7 hPa 0,0 l/m 0 min 0 min 223 W/m 12,9 km/h (3 Bft) 93,62 %
28.05.2022 17:40 16,9 C 17,2 C 12,8 C 52 % 1019,8 hPa 0,0 l/m 0 min 0 min 233 W/m 22,5 km/h (4 Bft) 95,65 %
28.05.2022 17:42 16,8 C 17,2 C 12,8 C 51 % 1019,7 hPa 0,0 l/m 0 min 0 min 246 W/m 19,3 km/h (3 Bft) 95,74 %
28.05.2022 17:44 16,8 C 17,2 C 12,8 C 52 % 1019,8 hPa 0,0 l/m 2 min 0 min 288 W/m 22,5 km/h (4 Bft) 95,74 %
28.05.2022 17:46 16,8 C 18,3 C 13,3 C 52 % 1019,8 hPa 0,0 l/m 2 min 0 min 341 W/m 12,9 km/h (3 Bft) 95,74 %
28.05.2022 17:48 16,9 C 19,4 C 13,9 C 51 % 1019,7 hPa 0,0 l/m 2 min 0 min 341 W/m 12,9 km/h (3 Bft) 93,62 %
28.05.2022 17:50 17,1 C 20,6 C 13,9 C 51 % 1019,6 hPa 0,0 l/m 2 min 0 min 341 W/m 19,3 km/h (3 Bft) 95,74 %
28.05.2022 17:52 17,2 C 20,6 C 13,9 C 52 % 1019,6 hPa 0,0 l/m 2 min 0 min 341 W/m 12,9 km/h (3 Bft) 95,65 %
28.05.2022 17:54 17,4 C 22,2 C 14,4 C 51 % 1019,6 hPa 0,0 l/m 2 min 0 min 398 W/m 16,1 km/h (3 Bft) 95,74 %
28.05.2022 17:56 17,7 C 23,3 C 15,0 C 51 % 1019,6 hPa 0,0 l/m 2 min 0 min 694 W/m 12,9 km/h (3 Bft) 95,74 %
28.05.2022 17:58 17,9 C 22,2 C 15,0 C 51 % 1019,6 hPa 0,0 l/m 2 min 0 min 679 W/m 22,5 km/h (4 Bft) 91,49 %
28.05.2022 18:00 17,9 C 20,6 C 14,4 C 51 % 1019,6 hPa 0,0 l/m 0 min 0 min 220 W/m 25,7 km/h (4 Bft) 95,74 %
28.05.2022 18:02 17,9 C 21,1 C 14,4 C 51 % 1019,6 hPa 0,0 l/m 2 min 0 min 369 W/m 22,5 km/h (4 Bft) 95,74 %
28.05.2022 18:04 17,9 C 21,7 C 15,0 C 51 % 1019,7 hPa 0,0 l/m 2 min 0 min 640 W/m 25,7 km/h (4 Bft) 93,48 %
28.05.2022 18:08 17,8 C 21,7 C 15,0 C 51 % 1019,7 hPa 0,0 l/m 4 min 0 min 640 W/m 41,8 km/h (6 Bft) 92,63 %
28.05.2022 18:10 17,8 C 21,7 C 15,0 C 52 % 1019,8 hPa 0,0 l/m 2 min 0 min 583 W/m 29,0 km/h (5 Bft) 91,49 %
28.05.2022 18:12 17,8 C 21,1 C 15,0 C 52 % 1019,7 hPa 0,0 l/m 2 min 0 min 540 W/m 29,0 km/h (5 Bft) 93,62 %
28.05.2022 18:14 17,7 C 20,0 C 14,4 C 53 % 1019,7 hPa 0,0 l/m 2 min 0 min 274 W/m 22,5 km/h (4 Bft) 93,62 %
28.05.2022 18:16 17,6 C 18,3 C 14,4 C 53 % 1019,6 hPa 0,0 l/m 0 min 0 min 169 W/m 35,4 km/h (5 Bft) 95,65 %
28.05.2022 18:18 17,5 C 17,8 C 13,3 C 53 % 1019,8 hPa 0,0 l/m 0 min 0 min 166 W/m 29,0 km/h (5 Bft) 95,74 %
28.05.2022 18:20 17,3 C 17,2 C 13,3 C 53 % 1019,7 hPa 0,0 l/m 0 min 0 min 170 W/m 19,3 km/h (3 Bft) 95,74 %
28.05.2022 18:22 17,1 C 16,7 C 12,8 C 54 % 1019,7 hPa 0,0 l/m 0 min 0 min 166 W/m 16,1 km/h (3 Bft) 95,74 %
28.05.2022 18:24 16,8 C 16,1 C 12,8 C 54 % 1019,6 hPa 0,0 l/m 0 min 0 min 164 W/m 22,5 km/h (4 Bft) 93,62 %
28.05.2022 18:26 16,7 C 16,1 C 12,8 C 53 % 1019,7 hPa 0,0 l/m 0 min 0 min 167 W/m 19,3 km/h (3 Bft) 95,74 %
28.05.2022 18:28 16,5 C 16,1 C 12,8 C 54 % 1019,6 hPa 0,0 l/m 0 min 0 min 172 W/m 19,3 km/h (3 Bft) 95,65 %
28.05.2022 18:30 16,4 C 16,1 C 12,8 C 54 % 1019,6 hPa 0,0 l/m 0 min 0 min 197 W/m 12,9 km/h (3 Bft) 95,74 %
28.05.2022 18:32 16,3 C 16,1 C 12,2 C 54 % 1019,7 hPa 0,0 l/m 0 min 0 min 182 W/m 19,3 km/h (3 Bft) 95,74 %
28.05.2022 18:34 16,2 C 16,7 C 12,2 C 53 % 1019,6 hPa 0,0 l/m 0 min 0 min 194 W/m 25,7 km/h (4 Bft) 95,74 %
28.05.2022 18:36 16,2 C 17,8 C 12,8 C 52 % 1019,6 hPa 0,0 l/m 0 min 0 min 195 W/m 29,0 km/h (5 Bft) 95,74 %
28.05.2022 18:38 16,2 C 17,2 C 12,8 C 53 % 1019,6 hPa 0,0 l/m 2 min 0 min 206 W/m 19,3 km/h (3 Bft) 97,87 %
28.05.2022 18:40 16,2 C 16,7 C 12,8 C 53 % 1019,6 hPa 0,0 l/m 2 min 0 min 224 W/m 25,7 km/h (4 Bft) 97,83 %
28.05.2022 18:42 16,2 C 16,7 C 12,8 C 53 % 1019,6 hPa 0,0 l/m 2 min 0 min 229 W/m 19,3 km/h (3 Bft) 100,00 %
28.05.2022 18:44 16,2 C 17,8 C 12,8 C 53 % 1019,6 hPa 0,0 l/m 2 min 0 min 292 W/m 19,3 km/h (3 Bft) 100,00 %
28.05.2022 18:46 16,3 C 17,8 C 12,8 C 53 % 1019,5 hPa 0,0 l/m 2 min 0 min 276 W/m 16,1 km/h (3 Bft) 97,87 %
28.05.2022 18:48 16,3 C 17,8 C 12,8 C 54 % 1019,5 hPa 0,0 l/m 2 min 0 min 218 W/m 9,7 km/h (2 Bft) 100,00 %
28.05.2022 18:50 16,3 C 17,2 C 12,8 C 54 % 1019,4 hPa 0,0 l/m 2 min 0 min 214 W/m 16,1 km/h (3 Bft) 97,87 %
28.05.2022 18:52 16,4 C 17,8 C 12,8 C 53 % 1019,5 hPa 0,0 l/m 2 min 0 min 235 W/m 16,1 km/h (3 Bft) 100,00 %
28.05.2022 18:54 16,4 C 18,9 C 13,3 C 53 % 1019,5 hPa 0,0 l/m 2 min 0 min 405 W/m 16,1 km/h (3 Bft) 97,87 %
28.05.2022 18:56 16,6 C 19,4 C 13,3 C 53 % 1019,4 hPa 0,0 l/m 2 min 0 min 482 W/m 12,9 km/h (3 Bft) 100,00 %
28.05.2022 18:58 16,6 C 18,3 C 13,3 C 53 % 1019,5 hPa 0,0 l/m 2 min 0 min 233 W/m 16,1 km/h (3 Bft) 100,00 %
28.05.2022 19:00 16,6 C 18,9 C 13,3 C 53 % 1019,4 hPa 0,0 l/m 2 min 0 min 297 W/m 25,7 km/h (4 Bft) 100,00 %
28.05.2022 19:02 16,6 C 18,3 C 13,3 C 52 % 1019,4 hPa 0,0 l/m 2 min 0 min 259 W/m 25,7 km/h (4 Bft) 100,00 %
28.05.2022 19:04 16,7 C 17,8 C 12,8 C 52 % 1019,4 hPa 0,0 l/m 0 min 0 min 171 W/m 22,5 km/h (4 Bft) 100,00 %
28.05.2022 19:06 16,7 C 17,8 C 12,8 C 52 % 1019,4 hPa 0,0 l/m 0 min 0 min 142 W/m 22,5 km/h (4 Bft) 100,00 %
28.05.2022 19:08 16,7 C 17,2 C 12,8 C 52 % 1019,5 hPa 0,0 l/m 0 min 0 min 108 W/m 29,0 km/h (5 Bft) 100,00 %
28.05.2022 19:10 16,6 C 16,7 C 12,8 C 52 % 1019,4 hPa 0,0 l/m 0 min 0 min 97 W/m 19,3 km/h (3 Bft) 100,00 %
28.05.2022 19:12 16,6 C 16,1 C 12,2 C 52 % 1019,4 hPa 0,0 l/m 0 min 0 min 91 W/m 22,5 km/h (4 Bft) 100,00 %
28.05.2022 19:14 16,4 C 16,1 C 12,2 C 52 % 1019,4 hPa 0,0 l/m 0 min 0 min 132 W/m 25,7 km/h (4 Bft) 100,00 %
28.05.2022 19:16 16,3 C 15,6 C 11,7 C 53 % 1019,4 hPa 0,0 l/m 0 min 0 min 119 W/m 22,5 km/h (4 Bft) 100,00 %
28.05.2022 19:18 16,2 C 16,1 C 11,7 C 54 % 1019,4 hPa 0,0 l/m 2 min 0 min 240 W/m 22,5 km/h (4 Bft) 100,00 %
28.05.2022 19:20 16,1 C 15,6 C 11,7 C 53 % 1019,4 hPa 0,0 l/m 0 min 0 min 147 W/m 22,5 km/h (4 Bft) 100,00 %
28.05.2022 19:22 16,0 C 15,6 C 11,7 C 54 % 1019,5 hPa 0,0 l/m 0 min 0 min 86 W/m 12,9 km/h (3 Bft) 97,87 %
28.05.2022 19:24 15,9 C 15,6 C 11,7 C 54 % 1019,4 hPa 0,0 l/m 0 min 0 min 79 W/m 22,5 km/h (4 Bft) 97,87 %
28.05.2022 19:26 15,8 C 15,6 C 11,7 C 54 % 1019,4 hPa 0,0 l/m 0 min 0 min 79 W/m 16,1 km/h (3 Bft) 97,87 %
28.05.2022 19:28 15,8 C 15,6 C 11,7 C 54 % 1019,4 hPa 0,0 l/m 0 min 0 min 92 W/m 19,3 km/h (3 Bft) 100,00 %
28.05.2022 19:30 15,7 C 15,6 C 11,7 C 55 % 1019,4 hPa 0,0 l/m 0 min 0 min 129 W/m 25,7 km/h (4 Bft) 100,00 %
28.05.2022 19:32 15,7 C 15,6 C 11,7 C 56 % 1019,5 hPa 0,0 l/m 2 min 0 min 221 W/m 22,5 km/h (4 Bft) 100,00 %
28.05.2022 19:34 15,7 C 15,6 C 11,7 C 56 % 1019,4 hPa 0,0 l/m 2 min 0 min 263 W/m 16,1 km/h (3 Bft) 100,00 %
28.05.2022 19:36 15,7 C 15,6 C 11,7 C 56 % 1019,5 hPa 0,0 l/m 2 min 0 min 255 W/m 29,0 km/h (5 Bft) 95,74 %
28.05.2022 19:38 15,7 C 15,6 C 11,7 C 56 % 1019,4 hPa 0,0 l/m 2 min 0 min 231 W/m 22,5 km/h (4 Bft) 100,00 %
28.05.2022 19:40 15,6 C 15,6 C 11,7 C 57 % 1019,4 hPa 0,0 l/m 2 min 0 min 148 W/m 35,4 km/h (5 Bft) 100,00 %
28.05.2022 19:42 15,5 C 15,0 C 11,7 C 59 % 1019,5 hPa 0,0 l/m 0 min 0 min 83 W/m 25,7 km/h (4 Bft) 100,00 %
28.05.2022 19:44 15,4 C 15,0 C 11,1 C 59 % 1019,5 hPa 0,0 l/m 0 min 0 min 77 W/m 19,3 km/h (3 Bft) 100,00 %
28.05.2022 19:46 15,3 C 14,4 C 11,1 C 60 % 1019,5 hPa 0,0 l/m 0 min 0 min 69 W/m 29,0 km/h (5 Bft) 97,87 %
28.05.2022 19:48 15,2 C 14,4 C 11,1 C 61 % 1019,5 hPa 0,0 l/m 0 min 0 min 60 W/m 16,1 km/h (3 Bft) 97,87 %
28.05.2022 19:50 15,1 C 14,4 C 10,6 C 61 % 1019,5 hPa 0,0 l/m 0 min 0 min 55 W/m 29,0 km/h (5 Bft) 100,00 %
28.05.2022 19:52 15,0 C 14,4 C 10,6 C 61 % 1019,6 hPa 0,0 l/m 0 min 0 min 51 W/m 16,1 km/h (3 Bft) 100,00 %
28.05.2022 19:54 14,9 C 13,9 C 10,6 C 62 % 1019,6 hPa 0,0 l/m 0 min 0 min 46 W/m 29,0 km/h (5 Bft) 100,00 %
28.05.2022 19:56 14,7 C 13,9 C 10,6 C 62 % 1019,6 hPa 0,0 l/m 0 min 0 min 44 W/m 19,3 km/h (3 Bft) 100,00 %
28.05.2022 19:58 14,7 C 13,9 C 10,6 C 62 % 1019,6 hPa 0,0 l/m 0 min 0 min 45 W/m 19,3 km/h (3 Bft) 100,00 %
28.05.2022 20:00 14,6 C 13,9 C 10,6 C 62 % 1019,6 hPa 0,0 l/m 0 min 0 min 47 W/m 16,1 km/h (3 Bft) 100,00 %
28.05.2022 20:02 14,4 C 13,9 C 10,6 C 62 % 1019,6 hPa 0,0 l/m 0 min 0 min 49 W/m 25,7 km/h (4 Bft) 100,00 %
28.05.2022 20:04 14,4 C 13,9 C 10,6 C 62 % 1019,6 hPa 0,0 l/m 0 min 0 min 51 W/m 16,1 km/h (3 Bft) 100,00 %
28.05.2022 20:06 14,3 C 13,9 C 10,6 C 61 % 1019,5 hPa 0,0 l/m 0 min 0 min 55 W/m 16,1 km/h (3 Bft) 97,87 %
28.05.2022 20:08 14,3 C 13,9 C 10,6 C 60 % 1019,5 hPa 0,0 l/m 0 min 0 min 64 W/m 29,0 km/h (5 Bft) 97,87 %
28.05.2022 20:10 14,3 C 13,9 C 10,6 C 60 % 1019,5 hPa 0,0 l/m 0 min 0 min 71 W/m 22,5 km/h (4 Bft) 97,87 %
28.05.2022 20:12 14,3 C 13,9 C 10,6 C 60 % 1019,5 hPa 0,0 l/m 0 min 0 min 76 W/m 22,5 km/h (4 Bft) 97,87 %
28.05.2022 20:14 14,3 C 14,4 C 10,6 C 60 % 1019,5 hPa 0,0 l/m 0 min 0 min 77 W/m 19,3 km/h (3 Bft) 95,74 %
28.05.2022 20:16 14,3 C 14,4 C 10,6 C 60 % 1019,5 hPa 0,0 l/m 0 min 0 min 79 W/m 16,1 km/h (3 Bft) 93,48 %
28.05.2022 20:18 14,3 C 14,4 C 10,6 C 60 % 1019,5 hPa 0,0 l/m 0 min 0 min 80 W/m 22,5 km/h (4 Bft) 95,74 %
28.05.2022 20:20 14,3 C 14,4 C 10,6 C 60 % 1019,5 hPa 0,0 l/m 2 min 0 min 81 W/m 16,1 km/h (3 Bft) 93,62 %
28.05.2022 20:22 14,3 C 14,4 C 10,6 C 60 % 1019,4 hPa 0,0 l/m 2 min 0 min 78 W/m 19,3 km/h (3 Bft) 93,62 %
28.05.2022 20:24 14,3 C 14,4 C 10,6 C 60 % 1019,5 hPa 0,0 l/m 0 min 0 min 74 W/m 16,1 km/h (3 Bft) 95,74 %
28.05.2022 20:26 14,3 C 13,9 C 10,6 C 60 % 1019,4 hPa 0,0 l/m 0 min 0 min 68 W/m 22,5 km/h (4 Bft) 95,65 %
28.05.2022 20:28 14,3 C 13,9 C 10,6 C 60 % 1019,4 hPa 0,0 l/m 0 min 0 min 62 W/m 12,9 km/h (3 Bft) 95,74 %
28.05.2022 20:30 14,3 C 13,9 C 10,6 C 60 % 1019,4 hPa 0,0 l/m 0 min 0 min 52 W/m 16,1 km/h (3 Bft) 95,74 %
28.05.2022 20:32 14,3 C 13,9 C 10,6 C 60 % 1019,4 hPa 0,0 l/m 0 min 0 min 42 W/m 22,5 km/h (4 Bft) 93,62 %
28.05.2022 20:34 14,3 C 13,9 C 10,0 C 60 % 1019,4 hPa 0,0 l/m 0 min 0 min 35 W/m 25,7 km/h (4 Bft) 93,62 %
28.05.2022 20:36 14,3 C 13,9 C 10,0 C 61 % 1019,4 hPa 0,0 l/m 0 min 0 min 29 W/m 19,3 km/h (3 Bft) 95,74 %
28.05.2022 20:38 14,2 C 13,3 C 10,0 C 61 % 1019,3 hPa 0,0 l/m 0 min 0 min 25 W/m 16,1 km/h (3 Bft) 95,74 %
28.05.2022 20:40 14,1 C 13,3 C 10,0 C 61 % 1019,3 hPa 0,0 l/m 0 min 0 min 24 W/m 16,1 km/h (3 Bft) 97,83 %
28.05.2022 20:42 14,1 C 13,3 C 10,0 C 62 % 1019,3 hPa 0,0 l/m 0 min 0 min 23 W/m 16,1 km/h (3 Bft) 95,74 %
28.05.2022 20:44 14,1 C 13,3 C 10,0 C 62 % 1019,3 hPa 0,0 l/m 0 min 0 min 21 W/m 12,9 km/h (3 Bft) 97,87 %
28.05.2022 20:46 14,0 C 13,3 C 10,0 C 62 % 1019,3 hPa 0,0 l/m 0 min 0 min 21 W/m 9,7 km/h (2 Bft) 95,74 %
28.05.2022 20:48 14,0 C 13,3 C 9,4 C 63 % 1019,4 hPa 0,0 l/m 0 min 0 min 21 W/m 9,7 km/h (2 Bft) 95,74 %
28.05.2022 20:50 13,9 C 13,3 C 9,4 C 63 % 1019,3 hPa 0,0 l/m 0 min 0 min 21 W/m 22,5 km/h (4 Bft) 93,62 %
28.05.2022 20:52 13,9 C 12,8 C 9,4 C 63 % 1019,4 hPa 0,0 l/m 0 min 0 min 21 W/m 12,9 km/h (3 Bft) 93,48 %
28.05.2022 20:54 13,8 C 12,8 C 9,4 C 63 % 1019,3 hPa 0,0 l/m 0 min 0 min 21 W/m 9,7 km/h (2 Bft) 95,74 %
28.05.2022 20:56 13,8 C 12,8 C 9,4 C 63 % 1019,3 hPa 0,0 l/m 0 min 0 min 21 W/m 9,7 km/h (2 Bft) 91,49 %
28.05.2022 20:58 13,7 C 12,8 C 9,4 C 63 % 1019,3 hPa 0,0 l/m 0 min 0 min 20 W/m 6,4 km/h (2 Bft) 95,74 %
28.05.2022 21:00 13,7 C 12,8 C 9,4 C 63 % 1019,3 hPa 0,0 l/m 0 min 0 min 19 W/m 6,4 km/h (2 Bft) 93,62 %
28.05.2022 21:02 13,6 C 12,8 C 9,4 C 63 % 1019,3 hPa 0,0 l/m 0 min 0 min 18 W/m 12,9 km/h (3 Bft) 93,62 %
28.05.2022 21:04 13,6 C 12,8 C 9,4 C 63 % 1019,3 hPa 0,0 l/m 0 min 0 min 18 W/m 12,9 km/h (3 Bft) 97,83 %
28.05.2022 21:06 13,6 C 12,8 C 9,4 C 64 % 1019,3 hPa 0,0 l/m 0 min 0 min 16 W/m 9,7 km/h (2 Bft) 97,87 %
28.05.2022 21:08 13,6 C 12,8 C 9,4 C 64 % 1019,3 hPa 0,0 l/m 0 min 0 min 16 W/m 9,7 km/h (2 Bft) 97,87 %
28.05.2022 21:10 13,5 C 12,8 C 9,4 C 64 % 1019,3 hPa 0,0 l/m 0 min 0 min 15 W/m 12,9 km/h (3 Bft) 97,87 %
28.05.2022 21:12 13,5 C 12,8 C 9,4 C 64 % 1019,3 hPa 0,0 l/m 0 min 0 min 14 W/m 6,4 km/h (2 Bft) 97,87 %
28.05.2022 21:14 13,5 C 12,8 C 9,4 C 65 % 1019,3 hPa 0,0 l/m 0 min 0 min 14 W/m 16,1 km/h (3 Bft) 95,74 %
28.05.2022 21:16 13,5 C 12,8 C 9,4 C 65 % 1019,3 hPa 0,0 l/m 0 min 0 min 14 W/m 16,1 km/h (3 Bft) 97,83 %
28.05.2022 21:18 13,4 C 12,8 C 9,4 C 65 % 1019,3 hPa 0,0 l/m 0 min 0 min 14 W/m 6,4 km/h (2 Bft) 97,87 %
28.05.2022 21:20 13,4 C 12,8 C 9,4 C 65 % 1019,3 hPa 0,0 l/m 0 min 0 min 14 W/m 16,1 km/h (3 Bft) 97,87 %
28.05.2022 21:22 13,4 C 12,8 C 9,4 C 65 % 1019,4 hPa 0,0 l/m 0 min 0 min 14 W/m 19,3 km/h (3 Bft) 97,87 %
28.05.2022 21:24 13,4 C 12,8 C 9,4 C 65 % 1019,3 hPa 0,0 l/m 0 min 0 min 12 W/m 12,9 km/h (3 Bft) 97,87 %
28.05.2022 21:26 13,4 C 12,8 C 9,4 C 66 % 1019,4 hPa 0,0 l/m 0 min 0 min 11 W/m 16,1 km/h (3 Bft) 97,83 %
28.05.2022 21:28 13,3 C 12,8 C 9,4 C 66 % 1019,3 hPa 0,0 l/m 0 min 0 min 9 W/m 12,9 km/h (3 Bft) 100,00 %
28.05.2022 21:30 13,3 C 12,8 C 9,4 C 66 % 1019,3 hPa 0,0 l/m 0 min 0 min 8 W/m 16,1 km/h (3 Bft) 100,00 %
28.05.2022 21:32 13,3 C 12,8 C 8,9 C 66 % 1019,4 hPa 0,0 l/m 0 min 0 min 7 W/m 19,3 km/h (3 Bft) 100,00 %
28.05.2022 21:34 13,2 C 12,2 C 8,9 C 66 % 1019,4 hPa 0,0 l/m 0 min 0 min 5 W/m 16,1 km/h (3 Bft) 100,00 %
28.05.2022 21:36 13,2 C 12,2 C 8,9 C 66 % 1019,4 hPa 0,0 l/m 0 min 0 min 4 W/m 19,3 km/h (3 Bft) 100,00 %
28.05.2022 21:38 13,2 C 12,2 C 8,9 C 66 % 1019,4 hPa 0,0 l/m 0 min 0 min 0 W/m 29,0 km/h (5 Bft) 100,00 %
28.05.2022 21:40 13,1 C 12,2 C 8,9 C 66 % 1019,4 hPa 0,0 l/m 0 min 0 min 0 W/m 16,1 km/h (3 Bft) 95,65 %
28.05.2022 21:42 13,1 C 12,2 C 8,9 C 66 % 1019,4 hPa 0,0 l/m 0 min 0 min 0 W/m 12,9 km/h (3 Bft) 100,00 %
28.05.2022 21:44 13,0 C 12,2 C 8,9 C 66 % 1019,4 hPa 0,0 l/m 0 min 0 min 0 W/m 12,9 km/h (3 Bft) 97,87 %
28.05.2022 21:46 12,9 C 12,2 C 8,9 C 66 % 1019,4 hPa 0,0 l/m 0 min 0 min 0 W/m 9,7 km/h (2 Bft) 100,00 %
28.05.2022 21:48 12,9 C 12,2 C 8,9 C 66 % 1019,4 hPa 0,0 l/m 0 min 0 min 0 W/m 16,1 km/h (3 Bft) 100,00 %
28.05.2022 21:50 12,9 C 12,2 C 8,9 C 66 % 1019,4 hPa 0,0 l/m 0 min 0 min 0 W/m 9,7 km/h (2 Bft) 100,00 %
28.05.2022 21:52 12,8 C 12,2 C 8,9 C 67 % 1019,4 hPa 0,0 l/m 0 min 0 min 0 W/m 16,1 km/h (3 Bft) 100,00 %
28.05.2022 21:54 12,8 C 11,7 C 8,3 C 67 % 1019,4 hPa 0,0 l/m 0 min 0 min 0 W/m 16,1 km/h (3 Bft) 97,87 %
28.05.2022 21:56 12,7 C 11,7 C 8,9 C 67 % 1019,4 hPa 0,0 l/m 0 min 0 min 0 W/m 12,9 km/h (3 Bft) 95,74 %
28.05.2022 21:58 12,7 C 11,7 C 8,3 C 67 % 1019,4 hPa 0,0 l/m 0 min 0 min 0 W/m 12,9 km/h (3 Bft) 97,87 %
28.05.2022 22:00 12,7 C 12,2 C 8,9 C 67 % 1019,4 hPa 0,0 l/m 0 min 0 min 0 W/m 9,7 km/h (2 Bft) 97,87 %
28.05.2022 22:02 12,7 C 11,7 C 8,9 C 68 % 1019,4 hPa 0,0 l/m 0 min 0 min 0 W/m 9,7 km/h (2 Bft) 93,48 %
28.05.2022 22:04 12,7 C 11,7 C 8,9 C 68 % 1019,4 hPa 0,0 l/m 0 min 0 min 0 W/m 12,9 km/h (3 Bft) 95,74 %
28.05.2022 22:06 12,6 C 11,7 C 8,3 C 68 % 1019,4 hPa 0,0 l/m 0 min 0 min 0 W/m 16,1 km/h (3 Bft) 97,87 %
28.05.2022 22:08 12,6 C 11,7 C 8,9 C 68 % 1019,4 hPa 0,0 l/m 0 min 0 min 0 W/m 9,7 km/h (2 Bft) 97,87 %
28.05.2022 22:10 12,6 C 11,7 C 8,9 C 68 % 1019,4 hPa 0,0 l/m 0 min 0 min 0 W/m 9,7 km/h (2 Bft) 97,87 %
28.05.2022 22:12 12,6 C 11,7 C 8,9 C 68 % 1019,4 hPa 0,0 l/m 0 min 0 min 0 W/m 16,1 km/h (3 Bft) 97,87 %
28.05.2022 22:14 12,6 C 11,7 C 8,3 C 68 % 1019,3 hPa 0,0 l/m 0 min 0 min 0 W/m 12,9 km/h (3 Bft) 97,83 %
28.05.2022 22:16 12,5 C 11,7 C 8,3 C 69 % 1019,4 hPa 0,0 l/m 0 min 0 min 0 W/m 9,7 km/h (2 Bft) 95,74 %
28.05.2022 22:18 12,5 C 11,7 C 8,3 C 69 % 1019,3 hPa 0,0 l/m 0 min 0 min 0 W/m 9,7 km/h (2 Bft) 97,87 %
28.05.2022 22:20 12,4 C 11,7 C 8,3 C 69 % 1019,4 hPa 0,0 l/m 0 min 0 min 0 W/m 19,3 km/h (3 Bft) 97,87 %
28.05.2022 22:22 12,4 C 11,7 C 8,3 C 69 % 1019,3 hPa 0,0 l/m 0 min 0 min 0 W/m 16,1 km/h (3 Bft) 97,87 %
28.05.2022 22:24 12,4 C 11,7 C 8,3 C 69 % 1019,3 hPa 0,0 l/m 0 min 0 min 0 W/m 9,7 km/h (2 Bft) 97,87 %
28.05.2022 22:26 12,4 C 11,7 C 8,3 C 69 % 1019,3 hPa 0,0 l/m 0 min 0 min 0 W/m 6,4 km/h (2 Bft) 100,00 %
28.05.2022 22:28 12,3 C 11,7 C 8,3 C 69 % 1019,3 hPa 0,0 l/m 0 min 0 min 0 W/m 6,4 km/h (2 Bft) 100,00 %
28.05.2022 22:30 12,3 C 11,7 C 8,3 C 69 % 1019,3 hPa 0,0 l/m 0 min 0 min 0 W/m 9,7 km/h (2 Bft) 100,00 %
28.05.2022 22:32 12,3 C 11,1 C 8,3 C 69 % 1019,3 hPa 0,0 l/m 0 min 0 min 0 W/m 9,7 km/h (2 Bft) 100,00 %
28.05.2022 22:34 12,2 C 11,1 C 7,8 C 69 % 1019,3 hPa 0,0 l/m 0 min 0 min 0 W/m 3,2 km/h (1 Bft) 100,00 %
28.05.2022 22:36 12,2 C 11,1 C 7,8 C 70 % 1019,3 hPa 0,0 l/m 0 min 0 min 0 W/m 9,7 km/h (2 Bft) 100,00 %
28.05.2022 22:38 12,1 C 11,1 C 7,8 C 70 % 1019,3 hPa 0,0 l/m 0 min 0 min 0 W/m 9,7 km/h (2 Bft) 100,00 %
28.05.2022 22:40 12,1 C 11,1 C 7,8 C 70 % 1019,3 hPa 0,0 l/m 0 min 0 min 0 W/m 6,4 km/h (2 Bft) 100,00 %
28.05.2022 22:42 12,1 C 11,1 C 7,8 C 70 % 1019,3 hPa 0,0 l/m 0 min 0 min 0 W/m 6,4 km/h (2 Bft) 100,00 %
28.05.2022 22:44 12,0 C 11,1 C 7,8 C 70 % 1019,3 hPa 0,0 l/m 0 min 0 min 0 W/m 9,7 km/h (2 Bft) 100,00 %
28.05.2022 22:46 11,9 C 10,6 C 7,8 C 70 % 1019,2 hPa 0,0 l/m 0 min 0 min 0 W/m 12,9 km/h (3 Bft) 100,00 %
28.05.2022 22:48 11,9 C 10,6 C 7,8 C 71 % 1019,3 hPa 0,0 l/m 0 min 0 min 0 W/m 9,7 km/h (2 Bft) 100,00 %
28.05.2022 22:50 11,8 C 10,6 C 7,8 C 71 % 1019,3 hPa 0,0 l/m 0 min 0 min 0 W/m 12,9 km/h (3 Bft) 100,00 %
28.05.2022 22:52 11,8 C 10,6 C 7,8 C 71 % 1019,3 hPa 0,0 l/m 0 min 0 min 0 W/m 9,7 km/h (2 Bft) 100,00 %
28.05.2022 22:54 11,7 C 10,6 C 7,2 C 71 % 1019,2 hPa 0,0 l/m 0 min 0 min 0 W/m 12,9 km/h (3 Bft) 100,00 %
28.05.2022 22:56 11,7 C 10,6 C 7,2 C 71 % 1019,2 hPa 0,0 l/m 0 min 0 min 0 W/m 9,7 km/h (2 Bft) 100,00 %
28.05.2022 22:58 11,6 C 10,6 C 7,2 C 71 % 1019,2 hPa 0,0 l/m 0 min 0 min 0 W/m 12,9 km/h (3 Bft) 100,00 %
28.05.2022 23:00 11,6 C 10,6 C 7,2 C 71 % 1019,3 hPa 0,0 l/m 0 min 0 min 0 W/m 9,7 km/h (2 Bft) 100,00 %
28.05.2022 23:02 11,6 C 10,6 C 7,2 C 70 % 1019,3 hPa 0,0 l/m 0 min 0 min 0 W/m 12,9 km/h (3 Bft) 100,00 %
28.05.2022 23:04 11,5 C 10,6 C 7,2 C 70 % 1019,2 hPa 0,0 l/m 0 min 0 min 0 W/m 16,1 km/h (3 Bft) 100,00 %
28.05.2022 23:06 11,4 C 10,6 C 7,2 C 70 % 1019,2 hPa 0,0 l/m 0 min 0 min 0 W/m 12,9 km/h (3 Bft) 100,00 %
28.05.2022 23:08 11,4 C 10,6 C 7,2 C 70 % 1019,2 hPa 0,0 l/m 0 min 0 min 0 W/m 12,9 km/h (3 Bft) 100,00 %
28.05.2022 23:10 11,3 C 10,6 C 7,2 C 70 % 1019,2 hPa 0,0 l/m 0 min 0 min 0 W/m 12,9 km/h (3 Bft) 95,74 %
28.05.2022 23:12 11,3 C 10,6 C 7,2 C 70 % 1019,2 hPa 0,0 l/m 0 min 0 min 0 W/m 3,2 km/h (1 Bft) 100,00 %
28.05.2022 23:14 11,3 C 10,6 C 7,2 C 71 % 1019,2 hPa 0,0 l/m 0 min 0 min 0 W/m 12,9 km/h (3 Bft) 100,00 %
28.05.2022 23:16 11,2 C 10,6 C 7,2 C 71 % 1019,2 hPa 0,0 l/m 0 min 0 min 0 W/m 12,9 km/h (3 Bft) 100,00 %
28.05.2022 23:18 11,2 C 10,6 C 7,2 C 71 % 1019,2 hPa 0,0 l/m 0 min 0 min 0 W/m 16,1 km/h (3 Bft) 100,00 %
28.05.2022 23:20 11,1 C 10,0 C 7,2 C 71 % 1019,2 hPa 0,0 l/m 0 min 0 min 0 W/m 6,4 km/h (2 Bft) 93,75 %
28.05.2022 23:22 11,1 C 10,0 C 7,2 C 71 % 1019,2 hPa 0,0 l/m 0 min 0 min 0 W/m 6,4 km/h (2 Bft) 97,87 %
28.05.2022 23:24 11,1 C 10,0 C 6,7 C 71 % 1019,2 hPa 0,0 l/m 0 min 0 min 0 W/m 6,4 km/h (2 Bft) 97,87 %
28.05.2022 23:26 11,0 C 10,0 C 6,7 C 72 % 1019,2 hPa 0,0 l/m 0 min 0 min 0 W/m 12,9 km/h (3 Bft) 97,83 %
28.05.2022 23:28 10,9 C 10,0 C 6,7 C 72 % 1019,2 hPa 0,0 l/m 0 min 0 min 0 W/m 12,9 km/h (3 Bft) 95,74 %
28.05.2022 23:30 10,9 C 10,0 C 6,7 C 72 % 1019,1 hPa 0,0 l/m 0 min 0 min 0 W/m 6,4 km/h (2 Bft) 97,87 %
28.05.2022 23:32 10,9 C 10,0 C 6,7 C 72 % 1019,1 hPa 0,0 l/m 0 min 0 min 0 W/m 6,4 km/h (2 Bft) 97,22 %
28.05.2022 23:34 10,8 C 10,0 C 6,7 C 72 % 1019,2 hPa 0,0 l/m 0 min 0 min 0 W/m 6,4 km/h (2 Bft) 95,74 %
28.05.2022 23:36 10,8 C 10,0 C 6,7 C 72 % 1019,1 hPa 0,0 l/m 0 min 0 min 0 W/m 3,2 km/h (1 Bft) 93,10 %
28.05.2022 23:38 10,8 C 10,0 C 6,7 C 73 % 1019,1 hPa 0,0 l/m 0 min 0 min 0 W/m 6,4 km/h (2 Bft) 91,67 %
28.05.2022 23:40 10,8 C 10,0 C 6,7 C 73 % 1019,1 hPa 0,0 l/m 0 min 0 min 0 W/m 3,2 km/h (1 Bft) 91,30 %
28.05.2022 23:42 10,8 C 10,0 C 7,2 C 73 % 1019,2 hPa 0,0 l/m 0 min 0 min 0 W/m 3,2 km/h (1 Bft) 93,62 %
28.05.2022 23:44 10,7 C 10,0 C 6,7 C 73 % 1019,1 hPa 0,0 l/m 0 min 0 min 0 W/m 6,4 km/h (2 Bft) 91,49 %
28.05.2022 23:46 10,7 C 10,0 C 6,7 C 73 % 1019,1 hPa 0,0 l/m 0 min 0 min 0 W/m 3,2 km/h (1 Bft) 95,74 %
28.05.2022 23:48 10,7 C 10,0 C 6,7 C 74 % 1019,1 hPa 0,0 l/m 0 min 0 min 0 W/m 3,2 km/h (1 Bft) 91,49 %
28.05.2022 23:50 10,7 C 10,0 C 6,7 C 74 % 1019,1 hPa 0,0 l/m 0 min 0 min 0 W/m 3,2 km/h (1 Bft) 93,62 %
28.05.2022 23:52 10,7 C 10,0 C 6,7 C 74 % 1019,1 hPa 0,0 l/m 0 min 0 min 0 W/m 3,2 km/h (1 Bft) 91,30 %
28.05.2022 23:54 10,6 C 9,4 C 6,7 C 74 % 1019,1 hPa 0,0 l/m 0 min 0 min 0 W/m 3,2 km/h (1 Bft) 93,62 %
28.05.2022 23:56 10,6 C 9,4 C 6,7 C 74 % 1019,1 hPa 0,0 l/m 0 min 0 min 0 W/m 6,4 km/h (2 Bft) 93,62 %
28.05.2022 23:58 10,6 C 9,4 C 6,1 C 74 % 1019,1 hPa 0,0 l/m 0 min 0 min 0 W/m 3,2 km/h (1 Bft) 93,62 %
_ Min-Zeit 05:56 05:06 04:52 15:38 23:30 - - - - 02:10 13:30
Minimum _ 9,7 C 8,9 C 6,1 C 46 % 1019,1 hPa - - - - 0,0 km/h (0 Bft) 47,37 %
_ Max-Zeit 14:14 17:56 12:32 07:06 00:14 00:00 12:08 00:00 13:06 18:08 00:08
Maximum _ 19,1 C 23,3 C 22,2 C 88 % 1023,1 hPa 0,0 l/m 4 min 0 min 1170 W/m 41,8 km/h
N-NW (6 Bft)
100,00 %
Durchschnitt _ 13,9 C 14,4 C 10,9 C 67 % 1020,9 hPa #0,0 l/m #7:46 h #0 min. 404 W/m 14,2 km/h (3 Bft) 97,23 %
© 2022 W. Hausmann